<?xml version="1.0" encoding="UTF-8"?>
<gpx creator="Garmin Connect" version="1.1"
  xsi:schemaLocation="http://www.topografix.com/GPX/1/1 http://www.topografix.com/GPX/11.xsd"
  xmlns:ns3="http://www.garmin.com/xmlschemas/TrackPointExtension/v1"
  xmlns="http://www.topografix.com/GPX/1/1"
  xmlns:xsi="http://www.w3.org/2001/XMLSchema-instance" xmlns:ns2="http://www.garmin.com/xmlschemas/GpxExtensions/v3">
  <metadata>
    <name>LU - Dag 3</name>
    <link href="connect.garmin.com">
      <text>Garmin Connect</text>
    </link>
    <time>2024-12-29T15:01:53.000Z</time>
  </metadata>
  <wpt lat="49.90737242485694" lon="6.07942458894016">
    <ele>0.0</ele>
    <name>Hoogste punt 1</name>
    <type>GENERIC</type>
  </wpt>
  <wpt lat="49.91290428240645" lon="6.0725566743951">
    <ele>0.0</ele>
    <name>Waterpunt 1</name>
    <type>INFO</type>
  </wpt>
  <wpt lat="49.91766556121931" lon="6.06082838759746">
    <ele>0.0</ele>
    <name>Hoogste punt 2</name>
    <type>GENERIC</type>
  </wpt>
  <wpt lat="49.91647414282705" lon="6.05989054536585">
    <ele>0.0</ele>
    <name>Waterpunt 2</name>
    <type>INFO</type>
  </wpt>
  <wpt lat="49.91724245821633" lon="6.05287587727687">
    <ele>0.0</ele>
    <name>Waterpunt 3</name>
    <type>INFO</type>
  </wpt>
  <wpt lat="49.91063237940418" lon="6.05376604751886">
    <ele>0.0</ele>
    <name>Hoogste punt 3</name>
    <type>GENERIC</type>
  </wpt>
  <wpt lat="49.91054811243396" lon="6.05285318994175">
    <ele>0.0</ele>
    <name>Scenic view</name>
    <type>INFO</type>
  </wpt>
  <wpt lat="49.91056735010945" lon="6.05267096677038">
    <ele>0.0</ele>
    <name>Napoleon tree</name>
    <type>INFO</type>
  </wpt>
  <wpt lat="49.920764" lon="6.040913">
    <ele>0.0</ele>
    <name>Doigt de Dieu</name>
    <type>INFO</type>
  </wpt>
  <wpt lat="49.91907169890068" lon="6.03752500188793">
    <ele>0.0</ele>
    <name>Info</name>
    <type>INFO</type>
  </wpt>
  <wpt lat="49.92007268203733" lon="6.03786428196422">
    <ele>0.0</ele>
    <name>Wateval</name>
    <type>VALLEY</type>
  </wpt>
  <wpt lat="49.92825189261517" lon="6.0433195750373">
    <ele>0.0</ele>
    <name>Hoogste punt 4</name>
    <type>GENERIC</type>
  </wpt>
  <trk>
    <name>LU - Dag 3</name>
    <trkseg>
      <trkpt lat="49.91332294419408" lon="6.086023952811956">
        <ele>235.94</ele>
        <time>2024-12-29T15:01:53.000Z</time>
      </trkpt>
      <trkpt lat="49.913257313892245" lon="6.085788924247026">
        <ele>235.72</ele>
        <time>2024-12-29T15:01:53.022Z</time>
      </trkpt>
      <trkpt lat="49.91319193504751" lon="6.085554985329509">
        <ele>235.12</ele>
        <time>2024-12-29T15:01:53.066Z</time>
      </trkpt>
      <trkpt lat="49.91313493810594" lon="6.085471920669079">
        <ele>234.72</ele>
        <time>2024-12-29T15:01:53.120Z</time>
      </trkpt>
      <trkpt lat="49.91308397613466" lon="6.085354993119836">
        <ele>234.16</ele>
        <time>2024-12-29T15:01:53.187Z</time>
      </trkpt>
      <trkpt lat="49.91301993839443" lon="6.085247956216335">
        <ele>233.72</ele>
        <time>2024-12-29T15:01:53.266Z</time>
      </trkpt>
      <trkpt lat="49.91285934112966" lon="6.085085850208998">
        <ele>233.6</ele>
        <time>2024-12-29T15:01:53.371Z</time>
      </trkpt>
      <trkpt lat="49.91269899532199" lon="6.084923995658755">
        <ele>233.86</ele>
        <time>2024-12-29T15:01:53.501Z</time>
      </trkpt>
      <trkpt lat="49.9124809820205" lon="6.084708999842405">
        <ele>234.5</ele>
        <time>2024-12-29T15:01:53.666Z</time>
      </trkpt>
      <trkpt lat="49.9123203009367" lon="6.084551336243749">
        <ele>235.11</ele>
        <time>2024-12-29T15:01:53.856Z</time>
      </trkpt>
      <trkpt lat="49.91215995512903" lon="6.084393924102187">
        <ele>235.41</ele>
        <time>2024-12-29T15:01:54.072Z</time>
      </trkpt>
      <trkpt lat="49.91205794736743" lon="6.084264926612377">
        <ele>235.7</ele>
        <time>2024-12-29T15:01:54.305Z</time>
      </trkpt>
      <trkpt lat="49.911836916580796" lon="6.084144981577992">
        <ele>236.56</ele>
        <time>2024-12-29T15:01:54.569Z</time>
      </trkpt>
      <trkpt lat="49.91157288663089" lon="6.083980360999703">
        <ele>237.6</ele>
        <time>2024-12-29T15:01:54.871Z</time>
      </trkpt>
      <trkpt lat="49.91130894050002" lon="6.0838159918785095">
        <ele>238.39</ele>
        <time>2024-12-29T15:01:55.211Z</time>
      </trkpt>
      <trkpt lat="49.91109536960721" lon="6.083658915013075">
        <ele>239.12</ele>
        <time>2024-12-29T15:01:55.583Z</time>
      </trkpt>
      <trkpt lat="49.91088196635246" lon="6.083501921966672">
        <ele>239.9</ele>
        <time>2024-12-29T15:01:55.986Z</time>
      </trkpt>
      <trkpt lat="49.91061785258353" lon="6.083366386592388">
        <ele>240.89</ele>
        <time>2024-12-29T15:01:56.427Z</time>
      </trkpt>
      <trkpt lat="49.91035399027169" lon="6.083230935037136">
        <ele>241.69</ele>
        <time>2024-12-29T15:01:56.905Z</time>
      </trkpt>
      <trkpt lat="49.910069927573204" lon="6.0831589344888926">
        <ele>242.87</ele>
        <time>2024-12-29T15:01:57.421Z</time>
      </trkpt>
      <trkpt lat="49.909880412742496" lon="6.083029936999083">
        <ele>243.76</ele>
        <time>2024-12-29T15:01:57.965Z</time>
      </trkpt>
      <trkpt lat="49.90969098173082" lon="6.082900939509273">
        <ele>244.62</ele>
        <time>2024-12-29T15:01:58.536Z</time>
      </trkpt>
      <trkpt lat="49.90968997590244" lon="6.082899933680892">
        <ele>245.53</ele>
        <time>2024-12-29T15:01:59.108Z</time>
      </trkpt>
      <trkpt lat="49.90964898839593" lon="6.082871938124299">
        <ele>246.44</ele>
        <time>2024-12-29T15:01:59.686Z</time>
      </trkpt>
      <trkpt lat="49.90954698063433" lon="6.082821981981397">
        <ele>247.46</ele>
        <time>2024-12-29T15:02:00.278Z</time>
      </trkpt>
      <trkpt lat="49.90945796482265" lon="6.082717962563038">
        <ele>248.37</ele>
        <time>2024-12-29T15:02:00.885Z</time>
      </trkpt>
      <trkpt lat="49.90930591709912" lon="6.082573961466551">
        <ele>249.46</ele>
        <time>2024-12-29T15:02:01.515Z</time>
      </trkpt>
      <trkpt lat="49.90911195985973" lon="6.082436917349696">
        <ele>250.98</ele>
        <time>2024-12-29T15:02:02.174Z</time>
      </trkpt>
      <trkpt lat="49.90899394266307" lon="6.082277996465564">
        <ele>252.32</ele>
        <time>2024-12-29T15:02:02.854Z</time>
      </trkpt>
      <trkpt lat="49.90878397598863" lon="6.08207699842751">
        <ele>253.66</ele>
        <time>2024-12-29T15:02:03.567Z</time>
      </trkpt>
      <trkpt lat="49.90864793770015" lon="6.081911958754063">
        <ele>254.89</ele>
        <time>2024-12-29T15:02:04.303Z</time>
      </trkpt>
      <trkpt lat="49.90843235515058" lon="6.081729317083955">
        <ele>256.32</ele>
        <time>2024-12-29T15:02:05.072Z</time>
      </trkpt>
      <trkpt lat="49.90821694023907" lon="6.081546926870942">
        <ele>258.64</ele>
        <time>2024-12-29T15:02:05.873Z</time>
      </trkpt>
      <trkpt lat="49.9080859310925" lon="6.0813789535313845">
        <ele>260.76</ele>
        <time>2024-12-29T15:02:06.697Z</time>
      </trkpt>
      <trkpt lat="49.90794092416763" lon="6.081166975200176">
        <ele>262.87</ele>
        <time>2024-12-29T15:02:07.548Z</time>
      </trkpt>
      <trkpt lat="49.907795917242765" lon="6.080886935815215">
        <ele>264.95</ele>
        <time>2024-12-29T15:02:08.430Z</time>
      </trkpt>
      <trkpt lat="49.90767798386514" lon="6.080578984692693">
        <ele>267.06</ele>
        <time>2024-12-29T15:02:09.343Z</time>
      </trkpt>
      <trkpt lat="49.90763791836798" lon="6.080504972487688">
        <ele>269.09</ele>
        <time>2024-12-29T15:02:10.264Z</time>
      </trkpt>
      <trkpt lat="49.90763297304511" lon="6.08042299747467">
        <ele>270.81</ele>
        <time>2024-12-29T15:02:11.192Z</time>
      </trkpt>
      <trkpt lat="49.90755099803209" lon="6.080129966139793">
        <ele>272.88</ele>
        <time>2024-12-29T15:02:12.147Z</time>
      </trkpt>
      <trkpt lat="49.9074799194932" lon="6.0798009764403105">
        <ele>274.74</ele>
        <time>2024-12-29T15:02:13.132Z</time>
      </trkpt>
      <trkpt lat="49.90744396112859" lon="6.079701986163855">
        <ele>276.34</ele>
        <time>2024-12-29T15:02:14.127Z</time>
      </trkpt>
      <trkpt lat="49.907425940036774" lon="6.07952194288373">
        <ele>277.68</ele>
        <time>2024-12-29T15:02:15.138Z</time>
      </trkpt>
      <trkpt lat="49.90743993781507" lon="6.079320944845676">
        <ele>278.67</ele>
        <time>2024-12-29T15:02:16.166Z</time>
      </trkpt>
      <trkpt lat="49.907426945865154" lon="6.07924098148942">
        <ele>279.43</ele>
        <time>2024-12-29T15:02:17.201Z</time>
      </trkpt>
      <trkpt lat="49.90737237967551" lon="6.079424545168877">
        <ele>280.03</ele>
        <time>2024-12-29T15:02:18.254Z</time>
      </trkpt>
      <trkpt lat="49.90736994892359" lon="6.079432927072048">
        <ele>280.07</ele>
        <time>2024-12-29T15:02:19.308Z</time>
      </trkpt>
      <trkpt lat="49.90735796280205" lon="6.079301917925477">
        <ele>279.98</ele>
        <time>2024-12-29T15:02:20.373Z</time>
      </trkpt>
      <trkpt lat="49.90733197890222" lon="6.079260930418968">
        <ele>279.55</ele>
        <time>2024-12-29T15:02:21.443Z</time>
      </trkpt>
      <trkpt lat="49.90726199001074" lon="6.079179961234331">
        <ele>279.05</ele>
        <time>2024-12-29T15:02:22.525Z</time>
      </trkpt>
      <trkpt lat="49.907318986952305" lon="6.07906898483634">
        <ele>277.6</ele>
        <time>2024-12-29T15:02:23.619Z</time>
      </trkpt>
      <trkpt lat="49.90736894309521" lon="6.0789719223976135">
        <ele>275.72</ele>
        <time>2024-12-29T15:02:24.724Z</time>
      </trkpt>
      <trkpt lat="49.90747162140906" lon="6.078773103654385">
        <ele>273.08</ele>
        <time>2024-12-29T15:02:25.850Z</time>
      </trkpt>
      <trkpt lat="49.90757396444678" lon="6.078574955463409">
        <ele>270.21</ele>
        <time>2024-12-29T15:02:26.998Z</time>
      </trkpt>
      <trkpt lat="49.90768996998668" lon="6.078195925801992">
        <ele>267.04</ele>
        <time>2024-12-29T15:02:28.183Z</time>
      </trkpt>
      <trkpt lat="49.907709918916225" lon="6.078072963282466">
        <ele>264.44</ele>
        <time>2024-12-29T15:02:29.378Z</time>
      </trkpt>
      <trkpt lat="49.907726934179664" lon="6.078009931370616">
        <ele>261.73</ele>
        <time>2024-12-29T15:02:30.579Z</time>
      </trkpt>
      <trkpt lat="49.90787194110453" lon="6.0777659341692924">
        <ele>258.54</ele>
        <time>2024-12-29T15:02:31.809Z</time>
      </trkpt>
      <trkpt lat="49.90795399993658" lon="6.077663926407695">
        <ele>255.56</ele>
        <time>2024-12-29T15:02:33.053Z</time>
      </trkpt>
      <trkpt lat="49.90805894136429" lon="6.077465945854783">
        <ele>252.68</ele>
        <time>2024-12-29T15:02:34.319Z</time>
      </trkpt>
      <trkpt lat="49.908140916377306" lon="6.077360920608044">
        <ele>249.76</ele>
        <time>2024-12-29T15:02:35.599Z</time>
      </trkpt>
      <trkpt lat="49.90835993550718" lon="6.07717995531857">
        <ele>247.06</ele>
        <time>2024-12-29T15:02:36.912Z</time>
      </trkpt>
      <trkpt lat="49.90846496075392" lon="6.077024973928928">
        <ele>244.81</ele>
        <time>2024-12-29T15:02:38.245Z</time>
      </trkpt>
      <trkpt lat="49.90855598822236" lon="6.076937969774008">
        <ele>242.85</ele>
        <time>2024-12-29T15:02:39.592Z</time>
      </trkpt>
      <trkpt lat="49.90878598764539" lon="6.076801931485534">
        <ele>240.83</ele>
        <time>2024-12-29T15:02:40.972Z</time>
      </trkpt>
      <trkpt lat="49.90896200761199" lon="6.076731439679861">
        <ele>238.79</ele>
        <time>2024-12-29T15:02:42.376Z</time>
      </trkpt>
      <trkpt lat="49.90913794375956" lon="6.076660947874188">
        <ele>237.04</ele>
        <time>2024-12-29T15:02:43.804Z</time>
      </trkpt>
      <trkpt lat="49.90934992209077" lon="6.076613925397396">
        <ele>235.34</ele>
        <time>2024-12-29T15:02:45.261Z</time>
      </trkpt>
      <trkpt lat="49.90956642664969" lon="6.076575452461839">
        <ele>233.94</ele>
        <time>2024-12-29T15:02:46.747Z</time>
      </trkpt>
      <trkpt lat="49.90978293120861" lon="6.076536979526281">
        <ele>232.62</ele>
        <time>2024-12-29T15:02:48.262Z</time>
      </trkpt>
      <trkpt lat="49.91001293063164" lon="6.076519964262843">
        <ele>231.55</ele>
        <time>2024-12-29T15:02:49.808Z</time>
      </trkpt>
      <trkpt lat="49.9100389983505" lon="6.076521975919604">
        <ele>230.69</ele>
        <time>2024-12-29T15:02:51.357Z</time>
      </trkpt>
      <trkpt lat="49.910263968631625" lon="6.076540919020772">
        <ele>230.03</ele>
        <time>2024-12-29T15:02:52.936Z</time>
      </trkpt>
      <trkpt lat="49.910435965284705" lon="6.076586935669184">
        <ele>229.55</ele>
        <time>2024-12-29T15:02:54.539Z</time>
      </trkpt>
      <trkpt lat="49.91054995916784" lon="6.07659699395299">
        <ele>229.33</ele>
        <time>2024-12-29T15:02:56.157Z</time>
      </trkpt>
      <trkpt lat="49.9107419885695" lon="6.076671928167343">
        <ele>229.21</ele>
        <time>2024-12-29T15:02:57.801Z</time>
      </trkpt>
      <trkpt lat="49.910888923332095" lon="6.076790951192379">
        <ele>229.16</ele>
        <time>2024-12-29T15:02:59.468Z</time>
      </trkpt>
      <trkpt lat="49.91111297160387" lon="6.076880972832441">
        <ele>229.7</ele>
        <time>2024-12-29T15:03:01.165Z</time>
      </trkpt>
      <trkpt lat="49.911336936056614" lon="6.076970994472504">
        <ele>230.49</ele>
        <time>2024-12-29T15:03:02.893Z</time>
      </trkpt>
      <trkpt lat="49.911595936864614" lon="6.077123964205384">
        <ele>231.46</ele>
        <time>2024-12-29T15:03:04.658Z</time>
      </trkpt>
      <trkpt lat="49.91183406673372" lon="6.077294535934925">
        <ele>232.62</ele>
        <time>2024-12-29T15:03:06.458Z</time>
      </trkpt>
      <trkpt lat="49.912071945145726" lon="6.0774649400264025">
        <ele>234.02</ele>
        <time>2024-12-29T15:03:08.293Z</time>
      </trkpt>
      <trkpt lat="49.912319127470255" lon="6.077662082388997">
        <ele>235.51</ele>
        <time>2024-12-29T15:03:10.165Z</time>
      </trkpt>
      <trkpt lat="49.91256597451866" lon="6.0778589732944965">
        <ele>237.44</ele>
        <time>2024-12-29T15:03:12.075Z</time>
      </trkpt>
      <trkpt lat="49.912800919264555" lon="6.07801697216928">
        <ele>239.75</ele>
        <time>2024-12-29T15:03:14.019Z</time>
      </trkpt>
      <trkpt lat="49.912885995581746" lon="6.0779879707843065">
        <ele>242.41</ele>
        <time>2024-12-29T15:03:15.974Z</time>
      </trkpt>
      <trkpt lat="49.91304592229426" lon="6.077863918617368">
        <ele>245.45</ele>
        <time>2024-12-29T15:03:17.953Z</time>
      </trkpt>
      <trkpt lat="49.9130819644779" lon="6.077810944989324">
        <ele>248.45</ele>
        <time>2024-12-29T15:03:19.939Z</time>
      </trkpt>
      <trkpt lat="49.913099985569715" lon="6.077710948884487">
        <ele>251.71</ele>
        <time>2024-12-29T15:03:21.934Z</time>
      </trkpt>
      <trkpt lat="49.913119934499264" lon="6.077445996925235">
        <ele>255.29</ele>
        <time>2024-12-29T15:03:23.952Z</time>
      </trkpt>
      <trkpt lat="49.91316092200577" lon="6.0772419814020395">
        <ele>259.04</ele>
        <time>2024-12-29T15:03:25.988Z</time>
      </trkpt>
      <trkpt lat="49.91316092200577" lon="6.07717995531857">
        <ele>262.75</ele>
        <time>2024-12-29T15:03:28.030Z</time>
      </trkpt>
      <trkpt lat="49.91313896141946" lon="6.077103931456804">
        <ele>266.59</ele>
        <time>2024-12-29T15:03:30.079Z</time>
      </trkpt>
      <trkpt lat="49.91311599500477" lon="6.076978957280517">
        <ele>270.64</ele>
        <time>2024-12-29T15:03:32.139Z</time>
      </trkpt>
      <trkpt lat="49.91306394338608" lon="6.076825987547636">
        <ele>274.82</ele>
        <time>2024-12-29T15:03:34.214Z</time>
      </trkpt>
      <trkpt lat="49.91300996392965" lon="6.076617948710918">
        <ele>279.04</ele>
        <time>2024-12-29T15:03:36.308Z</time>
      </trkpt>
      <trkpt lat="49.912949949502945" lon="6.076479982584715">
        <ele>283.19</ele>
        <time>2024-12-29T15:03:38.416Z</time>
      </trkpt>
      <trkpt lat="49.912843918427825" lon="6.076297927647829">
        <ele>287.44</ele>
        <time>2024-12-29T15:03:40.546Z</time>
      </trkpt>
      <trkpt lat="49.91277099587023" lon="6.076125930994749">
        <ele>291.54</ele>
        <time>2024-12-29T15:03:42.693Z</time>
      </trkpt>
      <trkpt lat="49.91268198005855" lon="6.076011937111616">
        <ele>295.52</ele>
        <time>2024-12-29T15:03:44.856Z</time>
      </trkpt>
      <trkpt lat="49.912626994773746" lon="6.075785961002111">
        <ele>299.44</ele>
        <time>2024-12-29T15:03:47.040Z</time>
      </trkpt>
      <trkpt lat="49.912604950368404" lon="6.075503993779421">
        <ele>303.26</ele>
        <time>2024-12-29T15:03:49.248Z</time>
      </trkpt>
      <trkpt lat="49.912584917619824" lon="6.075409948825836">
        <ele>306.85</ele>
        <time>2024-12-29T15:03:51.465Z</time>
      </trkpt>
      <trkpt lat="49.912544935941696" lon="6.075282962992787">
        <ele>310.34</ele>
        <time>2024-12-29T15:03:53.694Z</time>
      </trkpt>
      <trkpt lat="49.91252699866891" lon="6.075130999088287">
        <ele>313.66</ele>
        <time>2024-12-29T15:03:55.936Z</time>
      </trkpt>
      <trkpt lat="49.912543930113316" lon="6.074891947209835">
        <ele>316.86</ele>
        <time>2024-12-29T15:03:58.199Z</time>
      </trkpt>
      <trkpt lat="49.91256698034704" lon="6.074765967205167">
        <ele>319.68</ele>
        <time>2024-12-29T15:04:00.473Z</time>
      </trkpt>
      <trkpt lat="49.912586929276586" lon="6.074592964723706">
        <ele>322.33</ele>
        <time>2024-12-29T15:04:02.762Z</time>
      </trkpt>
      <trkpt lat="49.912646943703294" lon="6.074266992509365">
        <ele>324.98</ele>
        <time>2024-12-29T15:04:05.080Z</time>
      </trkpt>
      <trkpt lat="49.912716932594776" lon="6.074037998914719">
        <ele>327.15</ele>
        <time>2024-12-29T15:04:07.420Z</time>
      </trkpt>
      <trkpt lat="49.91275196895003" lon="6.073884945362806">
        <ele>329.01</ele>
        <time>2024-12-29T15:04:09.774Z</time>
      </trkpt>
      <trkpt lat="49.91275096312165" lon="6.073725940659642">
        <ele>330.66</ele>
        <time>2024-12-29T15:04:12.142Z</time>
      </trkpt>
      <trkpt lat="49.91269991733134" lon="6.073512956500053">
        <ele>332.13</ele>
        <time>2024-12-29T15:04:14.530Z</time>
      </trkpt>
      <trkpt lat="49.912692960351706" lon="6.073338948190212">
        <ele>333.08</ele>
        <time>2024-12-29T15:04:16.933Z</time>
      </trkpt>
      <trkpt lat="49.91278692148626" lon="6.073015993461013">
        <ele>333.62</ele>
        <time>2024-12-29T15:04:19.366Z</time>
      </trkpt>
      <trkpt lat="49.912843918427825" lon="6.072784988209605">
        <ele>333.97</ele>
        <time>2024-12-29T15:04:21.820Z</time>
      </trkpt>
      <trkpt lat="49.9128779489547" lon="6.072617936879396">
        <ele>334.12</ele>
        <time>2024-12-29T15:04:24.290Z</time>
      </trkpt>
      <trkpt lat="49.91290426813066" lon="6.0725566651672125">
        <ele>333.98</ele>
        <time>2024-12-29T15:04:26.766Z</time>
      </trkpt>
      <trkpt lat="49.912907956168056" lon="6.072547947987914">
        <ele>333.58</ele>
        <time>2024-12-29T15:04:29.243Z</time>
      </trkpt>
      <trkpt lat="49.91294198669493" lon="6.072534956037998">
        <ele>332.99</ele>
        <time>2024-12-29T15:04:31.724Z</time>
      </trkpt>
      <trkpt lat="49.91297693923116" lon="6.07256093993783">
        <ele>332.18</ele>
        <time>2024-12-29T15:04:34.211Z</time>
      </trkpt>
      <trkpt lat="49.91300694644451" lon="6.07262397184968">
        <ele>331.17</ele>
        <time>2024-12-29T15:04:36.704Z</time>
      </trkpt>
      <trkpt lat="49.91307199001312" lon="6.072810972109437">
        <ele>329.93</ele>
        <time>2024-12-29T15:04:39.216Z</time>
      </trkpt>
      <trkpt lat="49.91313963197172" lon="6.073061088100076">
        <ele>328.56</ele>
        <time>2024-12-29T15:04:41.751Z</time>
      </trkpt>
      <trkpt lat="49.913206938654184" lon="6.073309946805239">
        <ele>327.1</ele>
        <time>2024-12-29T15:04:44.309Z</time>
      </trkpt>
      <trkpt lat="49.91329092532396" lon="6.073523936793208">
        <ele>325.58</ele>
        <time>2024-12-29T15:04:46.889Z</time>
      </trkpt>
      <trkpt lat="49.913353119045496" lon="6.073796600103378">
        <ele>323.81</ele>
        <time>2024-12-29T15:04:49.494Z</time>
      </trkpt>
      <trkpt lat="49.9134149774909" lon="6.074067922309041">
        <ele>322.01</ele>
        <time>2024-12-29T15:04:52.124Z</time>
      </trkpt>
      <trkpt lat="49.913506926968694" lon="6.074376963078976">
        <ele>320.47</ele>
        <time>2024-12-29T15:04:54.783Z</time>
      </trkpt>
      <trkpt lat="49.91356593556702" lon="6.0744499694556">
        <ele>319.29</ele>
        <time>2024-12-29T15:04:57.452Z</time>
      </trkpt>
      <trkpt lat="49.91366794332862" lon="6.074486933648586">
        <ele>318.34</ele>
        <time>2024-12-29T15:05:00.135Z</time>
      </trkpt>
      <trkpt lat="49.91384094581008" lon="6.074470421299338">
        <ele>317.67</ele>
        <time>2024-12-29T15:05:02.841Z</time>
      </trkpt>
      <trkpt lat="49.91401394829154" lon="6.074453992769122">
        <ele>317.22</ele>
        <time>2024-12-29T15:05:05.570Z</time>
      </trkpt>
      <trkpt lat="49.91419290192425" lon="6.074433960020542">
        <ele>316.76</ele>
        <time>2024-12-29T15:05:08.323Z</time>
      </trkpt>
      <trkpt lat="49.91419290192425" lon="6.07443387620151">
        <ele>316.35</ele>
        <time>2024-12-29T15:05:11.076Z</time>
      </trkpt>
      <trkpt lat="49.914192985743284" lon="6.074433960020542">
        <ele>316.08</ele>
        <time>2024-12-29T15:05:13.829Z</time>
      </trkpt>
      <trkpt lat="49.914430947974324" lon="6.074366485700011">
        <ele>316.18</ele>
        <time>2024-12-29T15:05:16.615Z</time>
      </trkpt>
      <trkpt lat="49.914668994024396" lon="6.074298927560449">
        <ele>316.37</ele>
        <time>2024-12-29T15:05:19.433Z</time>
      </trkpt>
      <trkpt lat="49.91494392044842" lon="6.074241930618882">
        <ele>316.59</ele>
        <time>2024-12-29T15:05:22.288Z</time>
      </trkpt>
      <trkpt lat="49.91511298343539" lon="6.074154926463962">
        <ele>316.86</ele>
        <time>2024-12-29T15:05:25.167Z</time>
      </trkpt>
      <trkpt lat="49.91528196260333" lon="6.074067922309041">
        <ele>317.13</ele>
        <time>2024-12-29T15:05:28.069Z</time>
      </trkpt>
      <trkpt lat="49.91548698395491" lon="6.073973961174488">
        <ele>317.57</ele>
        <time>2024-12-29T15:05:31.000Z</time>
      </trkpt>
      <trkpt lat="49.91572603583336" lon="6.0738318879157305">
        <ele>318.27</ele>
        <time>2024-12-29T15:05:33.965Z</time>
      </trkpt>
      <trkpt lat="49.91596492007375" lon="6.073689982295036">
        <ele>318.85</ele>
        <time>2024-12-29T15:05:36.964Z</time>
      </trkpt>
      <trkpt lat="49.91602694615722" lon="6.073674978688359">
        <ele>319.5</ele>
        <time>2024-12-29T15:05:39.972Z</time>
      </trkpt>
      <trkpt lat="49.91608092561364" lon="6.0736089292913675">
        <ele>320.34</ele>
        <time>2024-12-29T15:05:42.989Z</time>
      </trkpt>
      <trkpt lat="49.91611696779728" lon="6.073529971763492">
        <ele>321.22</ele>
        <time>2024-12-29T15:05:46.014Z</time>
      </trkpt>
      <trkpt lat="49.91614596918225" lon="6.0735229309648275">
        <ele>322.09</ele>
        <time>2024-12-29T15:05:49.043Z</time>
      </trkpt>
      <trkpt lat="49.91615795530379" lon="6.073566935956478">
        <ele>322.96</ele>
        <time>2024-12-29T15:05:52.076Z</time>
      </trkpt>
      <trkpt lat="49.916237918660045" lon="6.073443973436952">
        <ele>323.96</ele>
        <time>2024-12-29T15:05:55.124Z</time>
      </trkpt>
      <trkpt lat="49.916282929480076" lon="6.073187990114093">
        <ele>325.31</ele>
        <time>2024-12-29T15:05:58.195Z</time>
      </trkpt>
      <trkpt lat="49.916279995813966" lon="6.073157982900739">
        <ele>326.44</ele>
        <time>2024-12-29T15:06:01.269Z</time>
      </trkpt>
      <trkpt lat="49.916279995813966" lon="6.0731559712439775">
        <ele>327.52</ele>
        <time>2024-12-29T15:06:04.343Z</time>
      </trkpt>
      <trkpt lat="49.916257951408625" lon="6.072884984314442">
        <ele>329.09</ele>
        <time>2024-12-29T15:06:07.440Z</time>
      </trkpt>
      <trkpt lat="49.91639591753483" lon="6.07258097268641">
        <ele>330.27</ele>
        <time>2024-12-29T15:06:10.569Z</time>
      </trkpt>
      <trkpt lat="49.91648694500327" lon="6.072254916653037">
        <ele>331.6</ele>
        <time>2024-12-29T15:06:13.729Z</time>
      </trkpt>
      <trkpt lat="49.916593646630645" lon="6.07198191806674">
        <ele>332.59</ele>
        <time>2024-12-29T15:06:16.917Z</time>
      </trkpt>
      <trkpt lat="49.91669992916286" lon="6.071709925308824">
        <ele>333.44</ele>
        <time>2024-12-29T15:06:20.132Z</time>
      </trkpt>
      <trkpt lat="49.9167719297111" lon="6.071446985006332">
        <ele>334.34</ele>
        <time>2024-12-29T15:06:23.372Z</time>
      </trkpt>
      <trkpt lat="49.91680596023798" lon="6.071367943659425">
        <ele>335.14</ele>
        <time>2024-12-29T15:06:26.620Z</time>
      </trkpt>
      <trkpt lat="49.91689397022128" lon="6.071317987516522">
        <ele>335.71</ele>
        <time>2024-12-29T15:06:29.880Z</time>
      </trkpt>
      <trkpt lat="49.916941998526454" lon="6.071338942274451">
        <ele>336.25</ele>
        <time>2024-12-29T15:06:33.147Z</time>
      </trkpt>
      <trkpt lat="49.917009975761175" lon="6.0713279619812965">
        <ele>336.74</ele>
        <time>2024-12-29T15:06:36.423Z</time>
      </trkpt>
      <trkpt lat="49.9170589260757" lon="6.071338942274451">
        <ele>337.24</ele>
        <time>2024-12-29T15:06:39.706Z</time>
      </trkpt>
      <trkpt lat="49.91708893328905" lon="6.071325950324535">
        <ele>337.81</ele>
        <time>2024-12-29T15:06:42.993Z</time>
      </trkpt>
      <trkpt lat="49.917116928845644" lon="6.071337936446071">
        <ele>338.35</ele>
        <time>2024-12-29T15:06:46.284Z</time>
      </trkpt>
      <trkpt lat="49.91714794188738" lon="6.071329973638058">
        <ele>338.91</ele>
        <time>2024-12-29T15:06:49.579Z</time>
      </trkpt>
      <trkpt lat="49.91717392578721" lon="6.0712929256260395">
        <ele>339.53</ele>
        <time>2024-12-29T15:06:52.879Z</time>
      </trkpt>
      <trkpt lat="49.9171849898994" lon="6.071197958663106">
        <ele>340.3</ele>
        <time>2024-12-29T15:06:56.187Z</time>
      </trkpt>
      <trkpt lat="49.91721692495048" lon="6.071096956729889">
        <ele>341.07</ele>
        <time>2024-12-29T15:06:59.505Z</time>
      </trkpt>
      <trkpt lat="49.917265959084034" lon="6.0710119642317295">
        <ele>341.78</ele>
        <time>2024-12-29T15:07:02.832Z</time>
      </trkpt>
      <trkpt lat="49.91734399460256" lon="6.070947926491499">
        <ele>342.39</ele>
        <time>2024-12-29T15:07:06.171Z</time>
      </trkpt>
      <trkpt lat="49.917375929653645" lon="6.070846924558282">
        <ele>343.15</ele>
        <time>2024-12-29T15:07:09.520Z</time>
      </trkpt>
      <trkpt lat="49.9174749199301" lon="6.070688925683498">
        <ele>343.85</ele>
        <time>2024-12-29T15:07:12.888Z</time>
      </trkpt>
      <trkpt lat="49.91751096211374" lon="6.070669982582331">
        <ele>344.3</ele>
        <time>2024-12-29T15:07:16.261Z</time>
      </trkpt>
      <trkpt lat="49.91753292270005" lon="6.070588929578662">
        <ele>344.81</ele>
        <time>2024-12-29T15:07:19.642Z</time>
      </trkpt>
      <trkpt lat="49.91753694601357" lon="6.070440988987684">
        <ele>345.37</ele>
        <time>2024-12-29T15:07:23.035Z</time>
      </trkpt>
      <trkpt lat="49.917610958218575" lon="6.070320960134268">
        <ele>345.64</ele>
        <time>2024-12-29T15:07:26.443Z</time>
      </trkpt>
      <trkpt lat="49.91770399734378" lon="6.070301933214068">
        <ele>345.43</ele>
        <time>2024-12-29T15:07:29.863Z</time>
      </trkpt>
      <trkpt lat="49.917764933779836" lon="6.070157932117581">
        <ele>345.39</ele>
        <time>2024-12-29T15:07:33.298Z</time>
      </trkpt>
      <trkpt lat="49.91777599789202" lon="6.070102946832776">
        <ele>345.3</ele>
        <time>2024-12-29T15:07:36.738Z</time>
      </trkpt>
      <trkpt lat="49.91781899705529" lon="6.070037987083197">
        <ele>344.93</ele>
        <time>2024-12-29T15:07:40.186Z</time>
      </trkpt>
      <trkpt lat="49.9178219307214" lon="6.0699929762631655">
        <ele>344.55</ele>
        <time>2024-12-29T15:07:43.638Z</time>
      </trkpt>
      <trkpt lat="49.917764933779836" lon="6.06985199265182">
        <ele>344.43</ele>
        <time>2024-12-29T15:07:47.104Z</time>
      </trkpt>
      <trkpt lat="49.91774892434478" lon="6.069741938263178">
        <ele>343.94</ele>
        <time>2024-12-29T15:07:50.580Z</time>
      </trkpt>
      <trkpt lat="49.917782954871655" lon="6.069649988785386">
        <ele>343.12</ele>
        <time>2024-12-29T15:07:54.065Z</time>
      </trkpt>
      <trkpt lat="49.917996944859624" lon="6.0693989507853985">
        <ele>341.73</ele>
        <time>2024-12-29T15:07:57.586Z</time>
      </trkpt>
      <trkpt lat="49.91807699203491" lon="6.069409931078553">
        <ele>340.13</ele>
        <time>2024-12-29T15:08:01.118Z</time>
      </trkpt>
      <trkpt lat="49.918150920420885" lon="6.069310940802097">
        <ele>338.59</ele>
        <time>2024-12-29T15:08:04.663Z</time>
      </trkpt>
      <trkpt lat="49.9182019662112" lon="6.0693279560655355">
        <ele>336.86</ele>
        <time>2024-12-29T15:08:08.215Z</time>
      </trkpt>
      <trkpt lat="49.918299950659275" lon="6.069176997989416">
        <ele>335.15</ele>
        <time>2024-12-29T15:08:11.785Z</time>
      </trkpt>
      <trkpt lat="49.91842098534107" lon="6.069052945822477">
        <ele>333.49</ele>
        <time>2024-12-29T15:08:15.374Z</time>
      </trkpt>
      <trkpt lat="49.918576972559094" lon="6.068956973031163">
        <ele>331.55</ele>
        <time>2024-12-29T15:08:18.986Z</time>
      </trkpt>
      <trkpt lat="49.91869297809899" lon="6.068972982466221">
        <ele>329.44</ele>
        <time>2024-12-29T15:08:22.613Z</time>
      </trkpt>
      <trkpt lat="49.918748969212174" lon="6.0688879899680614">
        <ele>327.92</ele>
        <time>2024-12-29T15:08:26.251Z</time>
      </trkpt>
      <trkpt lat="49.9187839217484" lon="6.068898970261216">
        <ele>326.22</ele>
        <time>2024-12-29T15:08:29.894Z</time>
      </trkpt>
      <trkpt lat="49.91886195726693" lon="6.068809954449534">
        <ele>324.75</ele>
        <time>2024-12-29T15:08:33.550Z</time>
      </trkpt>
      <trkpt lat="49.91888794116676" lon="6.0687389597296715">
        <ele>323.53</ele>
        <time>2024-12-29T15:08:37.213Z</time>
      </trkpt>
      <trkpt lat="49.918903950601816" lon="6.0686299949884415">
        <ele>322.57</ele>
        <time>2024-12-29T15:08:40.885Z</time>
      </trkpt>
      <trkpt lat="49.918966982513666" lon="6.06849798001349">
        <ele>321.63</ele>
        <time>2024-12-29T15:08:44.571Z</time>
      </trkpt>
      <trkpt lat="49.9189929664135" lon="6.0684889275580645">
        <ele>320.67</ele>
        <time>2024-12-29T15:08:48.261Z</time>
      </trkpt>
      <trkpt lat="49.919007970020175" lon="6.068502925336361">
        <ele>319.84</ele>
        <time>2024-12-29T15:08:51.953Z</time>
      </trkpt>
      <trkpt lat="49.91912095807493" lon="6.068398989737034">
        <ele>319.05</ele>
        <time>2024-12-29T15:08:55.663Z</time>
      </trkpt>
      <trkpt lat="49.91914593614638" lon="6.068347943946719">
        <ele>318.71</ele>
        <time>2024-12-29T15:08:59.378Z</time>
      </trkpt>
      <trkpt lat="49.91917099803686" lon="6.0683319345116615">
        <ele>318.52</ele>
        <time>2024-12-29T15:09:03.097Z</time>
      </trkpt>
      <trkpt lat="49.919204944744706" lon="6.068344926461577">
        <ele>318.4</ele>
        <time>2024-12-29T15:09:06.821Z</time>
      </trkpt>
      <trkpt lat="49.919266970828176" lon="6.068224981427193">
        <ele>318.83</ele>
        <time>2024-12-29T15:09:10.558Z</time>
      </trkpt>
      <trkpt lat="49.91934198886156" lon="6.0681599378585815">
        <ele>319.22</ele>
        <time>2024-12-29T15:09:14.306Z</time>
      </trkpt>
      <trkpt lat="49.91943092085421" lon="6.068186927586794">
        <ele>319.58</ele>
        <time>2024-12-29T15:09:18.066Z</time>
      </trkpt>
      <trkpt lat="49.919482972472906" lon="6.068083997815847">
        <ele>320.57</ele>
        <time>2024-12-29T15:09:21.838Z</time>
      </trkpt>
      <trkpt lat="49.91947098635137" lon="6.067893980070949">
        <ele>322.13</ele>
        <time>2024-12-29T15:09:25.626Z</time>
      </trkpt>
      <trkpt lat="49.91945095360279" lon="6.06778996065259">
        <ele>323.63</ele>
        <time>2024-12-29T15:09:29.424Z</time>
      </trkpt>
      <trkpt lat="49.91941197775304" lon="6.067806975916028">
        <ele>325.21</ele>
        <time>2024-12-29T15:09:33.227Z</time>
      </trkpt>
      <trkpt lat="49.91936294361949" lon="6.067892974242568">
        <ele>326.87</ele>
        <time>2024-12-29T15:09:37.040Z</time>
      </trkpt>
      <trkpt lat="49.919327991083264" lon="6.067923987284303">
        <ele>328.67</ele>
        <time>2024-12-29T15:09:40.858Z</time>
      </trkpt>
      <trkpt lat="49.91925397887826" lon="6.067690970376134">
        <ele>330.99</ele>
        <time>2024-12-29T15:09:44.699Z</time>
      </trkpt>
      <trkpt lat="49.91922698915005" lon="6.067690970376134">
        <ele>332.93</ele>
        <time>2024-12-29T15:09:48.543Z</time>
      </trkpt>
      <trkpt lat="49.919199999421835" lon="6.067759953439236">
        <ele>334.82</ele>
        <time>2024-12-29T15:09:52.394Z</time>
      </trkpt>
      <trkpt lat="49.91916697472334" lon="6.06763799674809">
        <ele>337.0</ele>
        <time>2024-12-29T15:09:56.257Z</time>
      </trkpt>
      <trkpt lat="49.919134955853224" lon="6.067452924326062">
        <ele>339.26</ele>
        <time>2024-12-29T15:10:00.136Z</time>
      </trkpt>
      <trkpt lat="49.91910494863987" lon="6.067377990111709">
        <ele>341.29</ele>
        <time>2024-12-29T15:10:04.023Z</time>
      </trkpt>
      <trkpt lat="49.919051975011826" lon="6.067201970145106">
        <ele>343.52</ele>
        <time>2024-12-29T15:10:07.926Z</time>
      </trkpt>
      <trkpt lat="49.91902791894972" lon="6.067019999027252">
        <ele>345.37</ele>
        <time>2024-12-29T15:10:11.845Z</time>
      </trkpt>
      <trkpt lat="49.91900688037276" lon="6.066771307960153">
        <ele>346.88</ele>
        <time>2024-12-29T15:10:15.786Z</time>
      </trkpt>
      <trkpt lat="49.918985925614834" lon="6.0665239579975605">
        <ele>348.24</ele>
        <time>2024-12-29T15:10:19.748Z</time>
      </trkpt>
      <trkpt lat="49.918985925614834" lon="6.066175941377878">
        <ele>349.62</ele>
        <time>2024-12-29T15:10:23.740Z</time>
      </trkpt>
      <trkpt lat="49.91901149041951" lon="6.065789870917797">
        <ele>351.11</ele>
        <time>2024-12-29T15:10:27.766Z</time>
      </trkpt>
      <trkpt lat="49.91903697140515" lon="6.065405979752541">
        <ele>352.49</ele>
        <time>2024-12-29T15:10:31.825Z</time>
      </trkpt>
      <trkpt lat="49.919075947254896" lon="6.065429951995611">
        <ele>353.5</ele>
        <time>2024-12-29T15:10:35.890Z</time>
      </trkpt>
      <trkpt lat="49.91910897195339" lon="6.065333979204297">
        <ele>354.43</ele>
        <time>2024-12-29T15:10:39.964Z</time>
      </trkpt>
      <trkpt lat="49.919115928933024" lon="6.065159970894456">
        <ele>355.45</ele>
        <time>2024-12-29T15:10:44.053Z</time>
      </trkpt>
      <trkpt lat="49.9191515520215" lon="6.064798962324858">
        <ele>356.28</ele>
        <time>2024-12-29T15:10:48.174Z</time>
      </trkpt>
      <trkpt lat="49.91918692365289" lon="6.064439965412021">
        <ele>357.03</ele>
        <time>2024-12-29T15:10:52.326Z</time>
      </trkpt>
      <trkpt lat="49.919201927259564" lon="6.064344998449087">
        <ele>357.88</ele>
        <time>2024-12-29T15:10:56.486Z</time>
      </trkpt>
      <trkpt lat="49.91920796222985" lon="6.0641879215836525">
        <ele>358.69</ele>
        <time>2024-12-29T15:11:00.660Z</time>
      </trkpt>
      <trkpt lat="49.91916596889496" lon="6.064018942415714">
        <ele>359.65</ele>
        <time>2024-12-29T15:11:04.850Z</time>
      </trkpt>
      <trkpt lat="49.91909799166024" lon="6.063825991004705">
        <ele>360.48</ele>
        <time>2024-12-29T15:11:09.058Z</time>
      </trkpt>
      <trkpt lat="49.918932784348726" lon="6.063594985753298">
        <ele>361.55</ele>
        <time>2024-12-29T15:11:13.296Z</time>
      </trkpt>
      <trkpt lat="49.918767577037215" lon="6.063364064320922">
        <ele>362.62</ele>
        <time>2024-12-29T15:11:17.564Z</time>
      </trkpt>
      <trkpt lat="49.918602956458926" lon="6.063133981078863">
        <ele>363.69</ele>
        <time>2024-12-29T15:11:21.861Z</time>
      </trkpt>
      <trkpt lat="49.91848594509065" lon="6.062939940020442">
        <ele>364.59</ele>
        <time>2024-12-29T15:11:26.181Z</time>
      </trkpt>
      <trkpt lat="49.91848493926227" lon="6.062938934192061">
        <ele>365.3</ele>
        <time>2024-12-29T15:11:30.502Z</time>
      </trkpt>
      <trkpt lat="49.91831596009433" lon="6.062658978626132">
        <ele>366.22</ele>
        <time>2024-12-29T15:11:34.856Z</time>
      </trkpt>
      <trkpt lat="49.918200708925724" lon="6.062419507652521">
        <ele>366.85</ele>
        <time>2024-12-29T15:11:39.235Z</time>
      </trkpt>
      <trkpt lat="49.918085960671306" lon="6.062180958688259">
        <ele>367.34</ele>
        <time>2024-12-29T15:11:43.640Z</time>
      </trkpt>
      <trkpt lat="49.91801077499986" lon="6.061943415552378">
        <ele>367.61</ele>
        <time>2024-12-29T15:11:48.068Z</time>
      </trkpt>
      <trkpt lat="49.917935924604535" lon="6.061706962063909">
        <ele>367.74</ele>
        <time>2024-12-29T15:11:52.518Z</time>
      </trkpt>
      <trkpt lat="49.91785881109536" lon="6.061404207721353">
        <ele>367.67</ele>
        <time>2024-12-29T15:11:56.996Z</time>
      </trkpt>
      <trkpt lat="49.917781949043274" lon="6.0611029621213675">
        <ele>367.39</ele>
        <time>2024-12-29T15:12:01.502Z</time>
      </trkpt>
      <trkpt lat="49.91770994849503" lon="6.060928953811526">
        <ele>367.12</ele>
        <time>2024-12-29T15:12:06.026Z</time>
      </trkpt>
      <trkpt lat="49.91766552440822" lon="6.060828370973468">
        <ele>366.76</ele>
        <time>2024-12-29T15:12:10.561Z</time>
      </trkpt>
      <trkpt lat="49.91762696765363" lon="6.060740947723389">
        <ele>366.29</ele>
        <time>2024-12-29T15:12:15.105Z</time>
      </trkpt>
      <trkpt lat="49.91743292659521" lon="6.060544978827238">
        <ele>365.61</ele>
        <time>2024-12-29T15:12:19.680Z</time>
      </trkpt>
      <trkpt lat="49.91721256636083" lon="6.060416232794523">
        <ele>364.94</ele>
        <time>2024-12-29T15:12:24.286Z</time>
      </trkpt>
      <trkpt lat="49.91699212230742" lon="6.06028757058084">
        <ele>364.16</ele>
        <time>2024-12-29T15:12:28.924Z</time>
      </trkpt>
      <trkpt lat="49.9167719297111" lon="6.060158992186189">
        <ele>363.21</ele>
        <time>2024-12-29T15:12:33.593Z</time>
      </trkpt>
      <trkpt lat="49.91650898940861" lon="6.059958999976516">
        <ele>362.21</ele>
        <time>2024-12-29T15:12:38.301Z</time>
      </trkpt>
      <trkpt lat="49.91648292168975" lon="6.059929998591542">
        <ele>360.92</ele>
        <time>2024-12-29T15:12:43.013Z</time>
      </trkpt>
      <trkpt lat="49.91647412069142" lon="6.059890519827604">
        <ele>359.43</ele>
        <time>2024-12-29T15:12:47.729Z</time>
      </trkpt>
      <trkpt lat="49.916471941396594" lon="6.059880964457989">
        <ele>357.81</ele>
        <time>2024-12-29T15:12:52.446Z</time>
      </trkpt>
      <trkpt lat="49.91648099385202" lon="6.059833941981196">
        <ele>356.02</ele>
        <time>2024-12-29T15:12:57.167Z</time>
      </trkpt>
      <trkpt lat="49.91672398522496" lon="6.05960494838655">
        <ele>353.74</ele>
        <time>2024-12-29T15:13:01.926Z</time>
      </trkpt>
      <trkpt lat="49.916927916929126" lon="6.059485925361514">
        <ele>351.45</ele>
        <time>2024-12-29T15:13:06.714Z</time>
      </trkpt>
      <trkpt lat="49.91697795689106" lon="6.059421971440315">
        <ele>349.2</ele>
        <time>2024-12-29T15:13:11.511Z</time>
      </trkpt>
      <trkpt lat="49.91708499379456" lon="6.059378972277045">
        <ele>346.75</ele>
        <time>2024-12-29T15:13:16.323Z</time>
      </trkpt>
      <trkpt lat="49.91719194687903" lon="6.05932692065835">
        <ele>344.22</ele>
        <time>2024-12-29T15:13:21.150Z</time>
      </trkpt>
      <trkpt lat="49.9174249637872" lon="6.0591099970042706">
        <ele>341.41</ele>
        <time>2024-12-29T15:13:26.013Z</time>
      </trkpt>
      <trkpt lat="49.91753895767033" lon="6.059084935113788">
        <ele>338.61</ele>
        <time>2024-12-29T15:13:30.891Z</time>
      </trkpt>
      <trkpt lat="49.91762294434011" lon="6.058989968150854">
        <ele>335.83</ele>
        <time>2024-12-29T15:13:35.783Z</time>
      </trkpt>
      <trkpt lat="49.91772495210171" lon="6.058940934017301">
        <ele>332.97</ele>
        <time>2024-12-29T15:13:40.689Z</time>
      </trkpt>
      <trkpt lat="49.91777599789202" lon="6.058883937075734">
        <ele>330.2</ele>
        <time>2024-12-29T15:13:45.604Z</time>
      </trkpt>
      <trkpt lat="49.917869959026575" lon="6.05881093069911">
        <ele>327.33</ele>
        <time>2024-12-29T15:13:50.533Z</time>
      </trkpt>
      <trkpt lat="49.91790591739118" lon="6.058739935979247">
        <ele>324.58</ele>
        <time>2024-12-29T15:13:55.470Z</time>
      </trkpt>
      <trkpt lat="49.9179099407047" lon="6.058671958744526">
        <ele>321.92</ele>
        <time>2024-12-29T15:14:00.412Z</time>
      </trkpt>
      <trkpt lat="49.9179826118052" lon="6.058214223012328">
        <ele>319.26</ele>
        <time>2024-12-29T15:14:05.395Z</time>
      </trkpt>
      <trkpt lat="49.91805494762957" lon="6.05775891803205">
        <ele>316.45</ele>
        <time>2024-12-29T15:14:10.418Z</time>
      </trkpt>
      <trkpt lat="49.91809794679284" lon="6.057486925274134">
        <ele>313.65</ele>
        <time>2024-12-29T15:14:15.466Z</time>
      </trkpt>
      <trkpt lat="49.91824094206095" lon="6.057055927813053">
        <ele>310.71</ele>
        <time>2024-12-29T15:14:20.555Z</time>
      </trkpt>
      <trkpt lat="49.918276984244585" lon="6.056994991376996">
        <ele>308.12</ele>
        <time>2024-12-29T15:14:25.651Z</time>
      </trkpt>
      <trkpt lat="49.91832995787263" lon="6.056979987770319">
        <ele>305.54</ele>
        <time>2024-12-29T15:14:30.755Z</time>
      </trkpt>
      <trkpt lat="49.91835996508598" lon="6.057050982490182">
        <ele>303.06</ele>
        <time>2024-12-29T15:14:35.866Z</time>
      </trkpt>
      <trkpt lat="49.918361976742744" lon="6.057135974988341">
        <ele>300.75</ele>
        <time>2024-12-29T15:14:40.984Z</time>
      </trkpt>
      <trkpt lat="49.91831830702722" lon="6.057396652176976">
        <ele>298.65</ele>
        <time>2024-12-29T15:14:46.126Z</time>
      </trkpt>
      <trkpt lat="49.918274972587824" lon="6.057655988261104">
        <ele>296.75</ele>
        <time>2024-12-29T15:14:51.291Z</time>
      </trkpt>
      <trkpt lat="49.918277990072966" lon="6.057796971872449">
        <ele>294.75</ele>
        <time>2024-12-29T15:14:56.468Z</time>
      </trkpt>
      <trkpt lat="49.918341943994164" lon="6.058173989877105">
        <ele>292.63</ele>
        <time>2024-12-29T15:15:01.678Z</time>
      </trkpt>
      <trkpt lat="49.91844495758414" lon="6.05848697014153">
        <ele>290.43</ele>
        <time>2024-12-29T15:15:06.919Z</time>
      </trkpt>
      <trkpt lat="49.918452920392156" lon="6.058203997090459">
        <ele>288.71</ele>
        <time>2024-12-29T15:15:12.184Z</time>
      </trkpt>
      <trkpt lat="49.91850094869733" lon="6.057830918580294">
        <ele>286.85</ele>
        <time>2024-12-29T15:15:17.482Z</time>
      </trkpt>
      <trkpt lat="49.91850597783923" lon="6.057575941085815">
        <ele>285.23</ele>
        <time>2024-12-29T15:15:22.802Z</time>
      </trkpt>
      <trkpt lat="49.91852894425392" lon="6.057459935545921">
        <ele>283.77</ele>
        <time>2024-12-29T15:15:28.132Z</time>
      </trkpt>
      <trkpt lat="49.91863212548196" lon="6.0572560876607895">
        <ele>282.22</ele>
        <time>2024-12-29T15:15:33.485Z</time>
      </trkpt>
      <trkpt lat="49.91873497143388" lon="6.057052994146943">
        <ele>280.98</ele>
        <time>2024-12-29T15:15:38.860Z</time>
      </trkpt>
      <trkpt lat="49.91884016431868" lon="6.0567021276801825">
        <ele>280.05</ele>
        <time>2024-12-29T15:15:44.268Z</time>
      </trkpt>
      <trkpt lat="49.918944938108325" lon="6.056352937594056">
        <ele>279.53</ele>
        <time>2024-12-29T15:15:49.709Z</time>
      </trkpt>
      <trkpt lat="49.918986931443214" lon="6.056234920397401">
        <ele>279.16</ele>
        <time>2024-12-29T15:15:55.162Z</time>
      </trkpt>
      <trkpt lat="49.91909623146057" lon="6.05593535117805">
        <ele>279.12</ele>
        <time>2024-12-29T15:16:00.645Z</time>
      </trkpt>
      <trkpt lat="49.919204944744706" lon="6.055636955425143">
        <ele>279.29</ele>
        <time>2024-12-29T15:16:06.157Z</time>
      </trkpt>
      <trkpt lat="49.91923394612968" lon="6.055480968207121">
        <ele>279.69</ele>
        <time>2024-12-29T15:16:11.683Z</time>
      </trkpt>
      <trkpt lat="49.91921693086624" lon="6.055323975160718">
        <ele>280.33</ele>
        <time>2024-12-29T15:16:17.223Z</time>
      </trkpt>
      <trkpt lat="49.91921684704721" lon="6.055323723703623">
        <ele>281.14</ele>
        <time>2024-12-29T15:16:22.763Z</time>
      </trkpt>
      <trkpt lat="49.91913193836808" lon="6.05511199682951">
        <ele>283.57</ele>
        <time>2024-12-29T15:16:28.324Z</time>
      </trkpt>
      <trkpt lat="49.919091956689954" lon="6.0551029443740845">
        <ele>285.11</ele>
        <time>2024-12-29T15:16:33.891Z</time>
      </trkpt>
      <trkpt lat="49.919050969183445" lon="6.055038990452886">
        <ele>286.81</ele>
        <time>2024-12-29T15:16:39.466Z</time>
      </trkpt>
      <trkpt lat="49.91891794838011" lon="6.054680999368429">
        <ele>288.77</ele>
        <time>2024-12-29T15:16:45.076Z</time>
      </trkpt>
      <trkpt lat="49.91886698640883" lon="6.054634982720017">
        <ele>290.9</ele>
        <time>2024-12-29T15:16:50.694Z</time>
      </trkpt>
      <trkpt lat="49.918685937300324" lon="6.0545289516448975">
        <ele>293.42</ele>
        <time>2024-12-29T15:16:56.338Z</time>
      </trkpt>
      <trkpt lat="49.918558951467276" lon="6.054421998560429">
        <ele>295.9</ele>
        <time>2024-12-29T15:17:02.001Z</time>
      </trkpt>
      <trkpt lat="49.91836893372238" lon="6.05429794639349">
        <ele>298.56</ele>
        <time>2024-12-29T15:17:07.692Z</time>
      </trkpt>
      <trkpt lat="49.91820783354342" lon="6.054122261703014">
        <ele>301.17</ele>
        <time>2024-12-29T15:17:13.409Z</time>
      </trkpt>
      <trkpt lat="49.91804698482156" lon="6.0539469961076975">
        <ele>303.85</ele>
        <time>2024-12-29T15:17:19.152Z</time>
      </trkpt>
      <trkpt lat="49.9178063403815" lon="6.0537448246032">
        <ele>306.7</ele>
        <time>2024-12-29T15:17:24.932Z</time>
      </trkpt>
      <trkpt lat="49.91756594739854" lon="6.053542988374829">
        <ele>309.63</ele>
        <time>2024-12-29T15:17:30.748Z</time>
      </trkpt>
      <trkpt lat="49.91744893603027" lon="6.053482973948121">
        <ele>312.47</ele>
        <time>2024-12-29T15:17:36.581Z</time>
      </trkpt>
      <trkpt lat="49.9173279851675" lon="6.053451960906386">
        <ele>315.35</ele>
        <time>2024-12-29T15:17:42.430Z</time>
      </trkpt>
      <trkpt lat="49.917288925498724" lon="6.053426982834935">
        <ele>318.02</ele>
        <time>2024-12-29T15:17:48.285Z</time>
      </trkpt>
      <trkpt lat="49.917266964912415" lon="6.053365962579846">
        <ele>320.64</ele>
        <time>2024-12-29T15:17:54.146Z</time>
      </trkpt>
      <trkpt lat="49.91725497879088" lon="6.052981987595558">
        <ele>323.16</ele>
        <time>2024-12-29T15:18:00.040Z</time>
      </trkpt>
      <trkpt lat="49.91724240593612" lon="6.0528758727014065">
        <ele>325.78</ele>
        <time>2024-12-29T15:18:05.943Z</time>
      </trkpt>
      <trkpt lat="49.91724198684096" lon="6.052871933206916">
        <ele>328.35</ele>
        <time>2024-12-29T15:18:11.846Z</time>
      </trkpt>
      <trkpt lat="49.917268976569176" lon="6.052803955972195">
        <ele>330.92</ele>
        <time>2024-12-29T15:18:17.756Z</time>
      </trkpt>
      <trkpt lat="49.91748698987067" lon="6.052681915462017">
        <ele>333.5</ele>
        <time>2024-12-29T15:18:23.697Z</time>
      </trkpt>
      <trkpt lat="49.91770491935313" lon="6.052559958770871">
        <ele>336.32</ele>
        <time>2024-12-29T15:18:29.669Z</time>
      </trkpt>
      <trkpt lat="49.91784296929836" lon="6.052516959607601">
        <ele>338.98</ele>
        <time>2024-12-29T15:18:35.660Z</time>
      </trkpt>
      <trkpt lat="49.91804899647832" lon="6.052518971264362">
        <ele>341.51</ele>
        <time>2024-12-29T15:18:41.679Z</time>
      </trkpt>
      <trkpt lat="49.91782234981656" lon="6.052347896620631">
        <ele>344.22</ele>
        <time>2024-12-29T15:18:47.731Z</time>
      </trkpt>
      <trkpt lat="49.9175959546119" lon="6.0521769896149635">
        <ele>346.91</ele>
        <time>2024-12-29T15:18:53.817Z</time>
      </trkpt>
      <trkpt lat="49.9175129737705" lon="6.052129967138171">
        <ele>349.44</ele>
        <time>2024-12-29T15:18:59.915Z</time>
      </trkpt>
      <trkpt lat="49.91740099154413" lon="6.0521139577031136">
        <ele>351.88</ele>
        <time>2024-12-29T15:19:06.028Z</time>
      </trkpt>
      <trkpt lat="49.917113576084375" lon="6.051999293267727">
        <ele>354.57</ele>
        <time>2024-12-29T15:19:12.180Z</time>
      </trkpt>
      <trkpt lat="49.91682616062462" lon="6.0518845450133085">
        <ele>357.43</ele>
        <time>2024-12-29T15:19:18.372Z</time>
      </trkpt>
      <trkpt lat="49.916538996621966" lon="6.051769964396954">
        <ele>360.41</ele>
        <time>2024-12-29T15:19:24.603Z</time>
      </trkpt>
      <trkpt lat="49.916302962228656" lon="6.051773987710476">
        <ele>363.01</ele>
        <time>2024-12-29T15:19:30.866Z</time>
      </trkpt>
      <trkpt lat="49.91622392088175" lon="6.051834924146533">
        <ele>365.25</ele>
        <time>2024-12-29T15:19:37.141Z</time>
      </trkpt>
      <trkpt lat="49.916192991659045" lon="6.051921928301454">
        <ele>367.37</ele>
        <time>2024-12-29T15:19:43.424Z</time>
      </trkpt>
      <trkpt lat="49.91614395752549" lon="6.052180929109454">
        <ele>369.41</ele>
        <time>2024-12-29T15:19:49.731Z</time>
      </trkpt>
      <trkpt lat="49.91613691672683" lon="6.052587954327464">
        <ele>371.5</ele>
        <time>2024-12-29T15:19:56.073Z</time>
      </trkpt>
      <trkpt lat="49.916152926161885" lon="6.052807979285717">
        <ele>373.33</ele>
        <time>2024-12-29T15:20:02.434Z</time>
      </trkpt>
      <trkpt lat="49.916194919496775" lon="6.053121965378523">
        <ele>375.04</ele>
        <time>2024-12-29T15:20:08.822Z</time>
      </trkpt>
      <trkpt lat="49.916192991659045" lon="6.053220955654979">
        <ele>376.81</ele>
        <time>2024-12-29T15:20:15.219Z</time>
      </trkpt>
      <trkpt lat="49.916192991659045" lon="6.053312988951802">
        <ele>378.55</ele>
        <time>2024-12-29T15:20:21.624Z</time>
      </trkpt>
      <trkpt lat="49.916150998324156" lon="6.053714985027909">
        <ele>380.25</ele>
        <time>2024-12-29T15:20:28.064Z</time>
      </trkpt>
      <trkpt lat="49.91611797362566" lon="6.053839959204197">
        <ele>382.04</ele>
        <time>2024-12-29T15:20:34.516Z</time>
      </trkpt>
      <trkpt lat="49.916061982512474" lon="6.053937943652272">
        <ele>383.94</ele>
        <time>2024-12-29T15:20:40.979Z</time>
      </trkpt>
      <trkpt lat="49.91600498557091" lon="6.0539899952709675">
        <ele>385.89</ele>
        <time>2024-12-29T15:20:47.451Z</time>
      </trkpt>
      <trkpt lat="49.915935918688774" lon="6.0540209244936705">
        <ele>387.94</ele>
        <time>2024-12-29T15:20:53.932Z</time>
      </trkpt>
      <trkpt lat="49.915892919525504" lon="6.054064929485321">
        <ele>389.9</ele>
        <time>2024-12-29T15:21:00.420Z</time>
      </trkpt>
      <trkpt lat="49.915846986696124" lon="6.054081944748759">
        <ele>391.96</ele>
        <time>2024-12-29T15:21:06.914Z</time>
      </trkpt>
      <trkpt lat="49.91579694673419" lon="6.0540759935975075">
        <ele>394.1</ele>
        <time>2024-12-29T15:21:13.415Z</time>
      </trkpt>
      <trkpt lat="49.915740955621004" lon="6.05408395640552">
        <ele>396.3</ele>
        <time>2024-12-29T15:21:19.924Z</time>
      </trkpt>
      <trkpt lat="49.91554096341133" lon="6.054163919761777">
        <ele>398.78</ele>
        <time>2024-12-29T15:21:26.460Z</time>
      </trkpt>
      <trkpt lat="49.91542898118496" lon="6.054225945845246">
        <ele>401.12</ele>
        <time>2024-12-29T15:21:33.012Z</time>
      </trkpt>
      <trkpt lat="49.91536695510149" lon="6.054277997463942">
        <ele>403.41</ele>
        <time>2024-12-29T15:21:39.573Z</time>
      </trkpt>
      <trkpt lat="49.915222954005" lon="6.054304987192154">
        <ele>405.9</ele>
        <time>2024-12-29T15:21:46.154Z</time>
      </trkpt>
      <trkpt lat="49.91511499509215" lon="6.054312950000167">
        <ele>408.34</ele>
        <time>2024-12-29T15:21:52.749Z</time>
      </trkpt>
      <trkpt lat="49.91489396430552" lon="6.054344968870282">
        <ele>410.93</ele>
        <time>2024-12-29T15:21:59.374Z</time>
      </trkpt>
      <trkpt lat="49.914579978212714" lon="6.05436491779983">
        <ele>413.55</ele>
        <time>2024-12-29T15:22:06.041Z</time>
      </trkpt>
      <trkpt lat="49.91434897296131" lon="6.0544079169631">
        <ele>416.17</ele>
        <time>2024-12-29T15:22:12.739Z</time>
      </trkpt>
      <trkpt lat="49.914261968806386" lon="6.054452927783132">
        <ele>418.43</ele>
        <time>2024-12-29T15:22:19.449Z</time>
      </trkpt>
      <trkpt lat="49.9141679238528" lon="6.0545639880001545">
        <ele>420.63</ele>
        <time>2024-12-29T15:22:26.175Z</time>
      </trkpt>
      <trkpt lat="49.91405594162643" lon="6.054763980209827">
        <ele>422.87</ele>
        <time>2024-12-29T15:22:32.924Z</time>
      </trkpt>
      <trkpt lat="49.913914958015084" lon="6.054939916357398">
        <ele>425.01</ele>
        <time>2024-12-29T15:22:39.697Z</time>
      </trkpt>
      <trkpt lat="49.91388092748821" lon="6.054999930784106">
        <ele>426.77</ele>
        <time>2024-12-29T15:22:46.477Z</time>
      </trkpt>
      <trkpt lat="49.91388796828687" lon="6.055032955482602">
        <ele>428.38</ele>
        <time>2024-12-29T15:22:53.260Z</time>
      </trkpt>
      <trkpt lat="49.91392694413662" lon="6.055090958252549">
        <ele>429.84</ele>
        <time>2024-12-29T15:23:00.050Z</time>
      </trkpt>
      <trkpt lat="49.91413121111691" lon="6.055373847484589">
        <ele>430.87</ele>
        <time>2024-12-29T15:23:06.877Z</time>
      </trkpt>
      <trkpt lat="49.91433497518301" lon="6.055655982345343">
        <ele>432.08</ele>
        <time>2024-12-29T15:23:13.740Z</time>
      </trkpt>
      <trkpt lat="49.91448392160237" lon="6.055944990366697">
        <ele>433.55</ele>
        <time>2024-12-29T15:23:20.635Z</time>
      </trkpt>
      <trkpt lat="49.91453295573592" lon="6.056140959262848">
        <ele>435.11</ele>
        <time>2024-12-29T15:23:27.548Z</time>
      </trkpt>
      <trkpt lat="49.91455097682774" lon="6.056360984221101">
        <ele>436.77</ele>
        <time>2024-12-29T15:23:34.480Z</time>
      </trkpt>
      <trkpt lat="49.9145289324224" lon="6.056432984769344">
        <ele>438.47</ele>
        <time>2024-12-29T15:23:41.419Z</time>
      </trkpt>
      <trkpt lat="49.91450898349285" lon="6.056588971987367">
        <ele>440.29</ele>
        <time>2024-12-29T15:23:48.372Z</time>
      </trkpt>
      <trkpt lat="49.91450294852257" lon="6.056933971121907">
        <ele>442.25</ele>
        <time>2024-12-29T15:23:55.354Z</time>
      </trkpt>
      <trkpt lat="49.914472941309214" lon="6.057244939729571">
        <ele>444.27</ele>
        <time>2024-12-29T15:24:02.364Z</time>
      </trkpt>
      <trkpt lat="49.91441493853927" lon="6.0575199499726295">
        <ele>446.45</ele>
        <time>2024-12-29T15:24:09.399Z</time>
      </trkpt>
      <trkpt lat="49.91439892910421" lon="6.057596979662776">
        <ele>448.63</ele>
        <time>2024-12-29T15:24:16.440Z</time>
      </trkpt>
      <trkpt lat="49.914280995726585" lon="6.057976931333542">
        <ele>450.97</ele>
        <time>2024-12-29T15:24:23.518Z</time>
      </trkpt>
      <trkpt lat="49.91418393328786" lon="6.058200979605317">
        <ele>453.4</ele>
        <time>2024-12-29T15:24:30.619Z</time>
      </trkpt>
      <trkpt lat="49.91406197659671" lon="6.058377921581268">
        <ele>456.08</ele>
        <time>2024-12-29T15:24:37.742Z</time>
      </trkpt>
      <trkpt lat="49.91397094912827" lon="6.058435924351215">
        <ele>458.82</ele>
        <time>2024-12-29T15:24:44.879Z</time>
      </trkpt>
      <trkpt lat="49.9138639960438" lon="6.058439947664738">
        <ele>461.73</ele>
        <time>2024-12-29T15:24:52.030Z</time>
      </trkpt>
      <trkpt lat="49.91360398940742" lon="6.058415975421667">
        <ele>465.03</ele>
        <time>2024-12-29T15:24:59.216Z</time>
      </trkpt>
      <trkpt lat="49.9134289752692" lon="6.05844397097826">
        <ele>468.04</ele>
        <time>2024-12-29T15:25:06.425Z</time>
      </trkpt>
      <trkpt lat="49.91320492699742" lon="6.058531980961561">
        <ele>471.01</ele>
        <time>2024-12-29T15:25:13.665Z</time>
      </trkpt>
      <trkpt lat="49.91297501139343" lon="6.058745887130499">
        <ele>473.9</ele>
        <time>2024-12-29T15:25:20.941Z</time>
      </trkpt>
      <trkpt lat="49.91274509578943" lon="6.058959793299437">
        <ele>476.78</ele>
        <time>2024-12-29T15:25:28.253Z</time>
      </trkpt>
      <trkpt lat="49.91251518018544" lon="6.059173699468374">
        <ele>479.57</ele>
        <time>2024-12-29T15:25:35.600Z</time>
      </trkpt>
      <trkpt lat="49.912285935133696" lon="6.059386935085058">
        <ele>482.27</ele>
        <time>2024-12-29T15:25:42.983Z</time>
      </trkpt>
      <trkpt lat="49.91224997676909" lon="6.059419959783554">
        <ele>484.69</ele>
        <time>2024-12-29T15:25:50.372Z</time>
      </trkpt>
      <trkpt lat="49.91210698150098" lon="6.059554992243648">
        <ele>487.1</ele>
        <time>2024-12-29T15:25:57.783Z</time>
      </trkpt>
      <trkpt lat="49.911985946819186" lon="6.059612995013595">
        <ele>489.34</ele>
        <time>2024-12-29T15:26:05.211Z</time>
      </trkpt>
      <trkpt lat="49.91174966096878" lon="6.059641744941473">
        <ele>491.5</ele>
        <time>2024-12-29T15:26:12.670Z</time>
      </trkpt>
      <trkpt lat="49.91151345893741" lon="6.059670494869351">
        <ele>493.38</ele>
        <time>2024-12-29T15:26:20.161Z</time>
      </trkpt>
      <trkpt lat="49.911277173087" lon="6.05969924479723">
        <ele>495.11</ele>
        <time>2024-12-29T15:26:27.684Z</time>
      </trkpt>
      <trkpt lat="49.91104097105563" lon="6.059727994725108">
        <ele>496.7</ele>
        <time>2024-12-29T15:26:35.238Z</time>
      </trkpt>
      <trkpt lat="49.911059997975826" lon="6.059554992243648">
        <ele>498.06</ele>
        <time>2024-12-29T15:26:42.807Z</time>
      </trkpt>
      <trkpt lat="49.911099979653955" lon="6.059370925650001">
        <ele>499.26</ele>
        <time>2024-12-29T15:26:50.393Z</time>
      </trkpt>
      <trkpt lat="49.91117399185896" lon="6.059089964255691">
        <ele>500.35</ele>
        <time>2024-12-29T15:26:58.005Z</time>
      </trkpt>
      <trkpt lat="49.911265186965466" lon="6.058767177164555">
        <ele>501.39</ele>
        <time>2024-12-29T15:27:05.648Z</time>
      </trkpt>
      <trkpt lat="49.91135596297681" lon="6.058445982635021">
        <ele>502.28</ele>
        <time>2024-12-29T15:27:13.321Z</time>
      </trkpt>
      <trkpt lat="49.91138597019017" lon="6.05835797265172">
        <ele>503.07</ele>
        <time>2024-12-29T15:27:21.003Z</time>
      </trkpt>
      <trkpt lat="49.91128798574209" lon="6.0579349379986525">
        <ele>503.83</ele>
        <time>2024-12-29T15:27:28.723Z</time>
      </trkpt>
      <trkpt lat="49.91104692220688" lon="6.0580639354884624">
        <ele>504.42</ele>
        <time>2024-12-29T15:27:36.477Z</time>
      </trkpt>
      <trkpt lat="49.911018926650286" lon="6.057872995734215">
        <ele>504.96</ele>
        <time>2024-12-29T15:27:44.248Z</time>
      </trkpt>
      <trkpt lat="49.91097609512508" lon="6.057417858392">
        <ele>505.32</ele>
        <time>2024-12-29T15:27:52.059Z</time>
      </trkpt>
      <trkpt lat="49.91093326359987" lon="6.056962804868817">
        <ele>505.62</ele>
        <time>2024-12-29T15:27:59.909Z</time>
      </trkpt>
      <trkpt lat="49.910890432074666" lon="6.0565077513456345">
        <ele>505.91</ele>
        <time>2024-12-29T15:28:07.799Z</time>
      </trkpt>
      <trkpt lat="49.91084760054946" lon="6.056052697822452">
        <ele>506.36</ele>
        <time>2024-12-29T15:28:15.729Z</time>
      </trkpt>
      <trkpt lat="49.91080476902425" lon="6.055597644299269">
        <ele>506.77</ele>
        <time>2024-12-29T15:28:23.698Z</time>
      </trkpt>
      <trkpt lat="49.910761937499046" lon="6.055142506957054">
        <ele>507.06</ele>
        <time>2024-12-29T15:28:31.707Z</time>
      </trkpt>
      <trkpt lat="49.91071910597384" lon="6.054687453433871">
        <ele>507.29</ele>
        <time>2024-12-29T15:28:39.756Z</time>
      </trkpt>
      <trkpt lat="49.91067627444863" lon="6.054232399910688">
        <ele>507.46</ele>
        <time>2024-12-29T15:28:47.844Z</time>
      </trkpt>
      <trkpt lat="49.91063344292343" lon="6.0537773463875055">
        <ele>507.55</ele>
        <time>2024-12-29T15:28:55.972Z</time>
      </trkpt>
      <trkpt lat="49.910632353276014" lon="6.053766030818224">
        <ele>507.54</ele>
        <time>2024-12-29T15:29:04.101Z</time>
      </trkpt>
      <trkpt lat="49.91059061139822" lon="6.053322292864323">
        <ele>507.45</ele>
        <time>2024-12-29T15:29:12.269Z</time>
      </trkpt>
      <trkpt lat="49.91054895333946" lon="6.052880985662341">
        <ele>507.35</ele>
        <time>2024-12-29T15:29:20.475Z</time>
      </trkpt>
      <trkpt lat="49.91054803133011" lon="6.052853157743812">
        <ele>507.11</ele>
        <time>2024-12-29T15:29:28.683Z</time>
      </trkpt>
      <trkpt lat="49.910545935854316" lon="6.0527869407087564">
        <ele>506.8</ele>
        <time>2024-12-29T15:29:36.897Z</time>
      </trkpt>
      <trkpt lat="49.9105673097074" lon="6.052670935168862">
        <ele>506.39</ele>
        <time>2024-12-29T15:29:45.122Z</time>
      </trkpt>
      <trkpt lat="49.91056898608804" lon="6.052661966532469">
        <ele>505.88</ele>
        <time>2024-12-29T15:29:53.347Z</time>
      </trkpt>
      <trkpt lat="49.91060393862426" lon="6.052549984306097">
        <ele>505.26</ele>
        <time>2024-12-29T15:30:01.583Z</time>
      </trkpt>
      <trkpt lat="49.910670993849635" lon="6.052384944632649">
        <ele>504.54</ele>
        <time>2024-12-29T15:30:09.836Z</time>
      </trkpt>
      <trkpt lat="49.910812228918076" lon="6.052035754546523">
        <ele>503.74</ele>
        <time>2024-12-29T15:30:18.124Z</time>
      </trkpt>
      <trkpt lat="49.91095312871039" lon="6.051687318831682">
        <ele>502.84</ele>
        <time>2024-12-29T15:30:26.448Z</time>
      </trkpt>
      <trkpt lat="49.910952961072326" lon="6.051687989383936">
        <ele>501.88</ele>
        <time>2024-12-29T15:30:34.772Z</time>
      </trkpt>
      <trkpt lat="49.910952961072326" lon="6.051687905564904">
        <ele>500.82</ele>
        <time>2024-12-29T15:30:43.096Z</time>
      </trkpt>
      <trkpt lat="49.91104792803526" lon="6.051485985517502">
        <ele>499.58</ele>
        <time>2024-12-29T15:30:51.441Z</time>
      </trkpt>
      <trkpt lat="49.911157647147775" lon="6.051279120147228">
        <ele>498.22</ele>
        <time>2024-12-29T15:30:59.810Z</time>
      </trkpt>
      <trkpt lat="49.91126694716513" lon="6.051072925329208">
        <ele>496.82</ele>
        <time>2024-12-29T15:31:08.201Z</time>
      </trkpt>
      <trkpt lat="49.911434166133404" lon="6.050840662792325">
        <ele>495.33</ele>
        <time>2024-12-29T15:31:16.622Z</time>
      </trkpt>
      <trkpt lat="49.911601385101676" lon="6.050608400255442">
        <ele>493.87</ele>
        <time>2024-12-29T15:31:25.073Z</time>
      </trkpt>
      <trkpt lat="49.911767933517694" lon="6.0503769759088755">
        <ele>492.36</ele>
        <time>2024-12-29T15:31:33.554Z</time>
      </trkpt>
      <trkpt lat="49.91189810447395" lon="6.050176145508885">
        <ele>490.89</ele>
        <time>2024-12-29T15:31:42.060Z</time>
      </trkpt>
      <trkpt lat="49.912027940154076" lon="6.049975985661149">
        <ele>489.4</ele>
        <time>2024-12-29T15:31:50.590Z</time>
      </trkpt>
      <trkpt lat="49.91223094984889" lon="6.049703992903233">
        <ele>487.89</ele>
        <time>2024-12-29T15:31:59.156Z</time>
      </trkpt>
      <trkpt lat="49.91247192956507" lon="6.049476927146316">
        <ele>486.4</ele>
        <time>2024-12-29T15:32:07.760Z</time>
      </trkpt>
      <trkpt lat="49.912648955360055" lon="6.0493609216064215">
        <ele>484.99</ele>
        <time>2024-12-29T15:32:16.389Z</time>
      </trkpt>
      <trkpt lat="49.91271894425154" lon="6.049365950748324">
        <ele>483.66</ele>
        <time>2024-12-29T15:32:25.028Z</time>
      </trkpt>
      <trkpt lat="49.9127899389714" lon="6.049435939639807">
        <ele>482.38</ele>
        <time>2024-12-29T15:32:33.678Z</time>
      </trkpt>
      <trkpt lat="49.91285297088325" lon="6.049573989585042">
        <ele>481.14</ele>
        <time>2024-12-29T15:32:42.343Z</time>
      </trkpt>
      <trkpt lat="49.91292396560311" lon="6.04991395957768">
        <ele>479.94</ele>
        <time>2024-12-29T15:32:51.038Z</time>
      </trkpt>
      <trkpt lat="49.91296394728124" lon="6.0501769836992025">
        <ele>478.75</ele>
        <time>2024-12-29T15:32:59.757Z</time>
      </trkpt>
      <trkpt lat="49.913010969758034" lon="6.0506299417465925">
        <ele>477.6</ele>
        <time>2024-12-29T15:33:08.515Z</time>
      </trkpt>
      <trkpt lat="49.913035947829485" lon="6.0510169342160225">
        <ele>476.53</ele>
        <time>2024-12-29T15:33:17.307Z</time>
      </trkpt>
      <trkpt lat="49.91304994560778" lon="6.0513959638774395">
        <ele>475.57</ele>
        <time>2024-12-29T15:33:26.131Z</time>
      </trkpt>
      <trkpt lat="49.91304592229426" lon="6.051689246669412">
        <ele>474.75</ele>
        <time>2024-12-29T15:33:34.981Z</time>
      </trkpt>
      <trkpt lat="49.91304198279977" lon="6.051980936899781">
        <ele>473.94</ele>
        <time>2024-12-29T15:33:43.856Z</time>
      </trkpt>
      <trkpt lat="49.91302287206054" lon="6.052298862487078">
        <ele>473.1</ele>
        <time>2024-12-29T15:33:52.758Z</time>
      </trkpt>
      <trkpt lat="49.91300392895937" lon="6.0526149440556765">
        <ele>472.32</ele>
        <time>2024-12-29T15:34:01.688Z</time>
      </trkpt>
      <trkpt lat="49.91310752928257" lon="6.052299616858363">
        <ele>471.54</ele>
        <time>2024-12-29T15:34:10.648Z</time>
      </trkpt>
      <trkpt lat="49.91321104578674" lon="6.051984205842018">
        <ele>470.77</ele>
        <time>2024-12-29T15:34:19.639Z</time>
      </trkpt>
      <trkpt lat="49.913313975557685" lon="6.051670974120498">
        <ele>469.89</ele>
        <time>2024-12-29T15:34:28.660Z</time>
      </trkpt>
      <trkpt lat="49.913318920880556" lon="6.0514739993959665">
        <ele>469.24</ele>
        <time>2024-12-29T15:34:37.698Z</time>
      </trkpt>
      <trkpt lat="49.91333099082112" lon="6.051364950835705">
        <ele>468.65</ele>
        <time>2024-12-29T15:34:46.746Z</time>
      </trkpt>
      <trkpt lat="49.91336099803448" lon="6.05110477656126">
        <ele>468.1</ele>
        <time>2024-12-29T15:34:55.816Z</time>
      </trkpt>
      <trkpt lat="49.9133909214288" lon="6.050845943391323">
        <ele>467.64</ele>
        <time>2024-12-29T15:35:04.909Z</time>
      </trkpt>
      <trkpt lat="49.91344699636102" lon="6.050572944805026">
        <ele>467.23</ele>
        <time>2024-12-29T15:35:14.027Z</time>
      </trkpt>
      <trkpt lat="49.91355596110225" lon="6.050233980640769">
        <ele>466.74</ele>
        <time>2024-12-29T15:35:23.177Z</time>
      </trkpt>
      <trkpt lat="49.91369719617069" lon="6.049961484968662">
        <ele>466.15</ele>
        <time>2024-12-29T15:35:32.357Z</time>
      </trkpt>
      <trkpt lat="49.91383843123913" lon="6.049689073115587">
        <ele>465.65</ele>
        <time>2024-12-29T15:35:41.568Z</time>
      </trkpt>
      <trkpt lat="49.913978995755315" lon="6.049417918547988">
        <ele>465.12</ele>
        <time>2024-12-29T15:35:50.809Z</time>
      </trkpt>
      <trkpt lat="49.914099695160985" lon="6.0491615161299706">
        <ele>464.55</ele>
        <time>2024-12-29T15:36:00.077Z</time>
      </trkpt>
      <trkpt lat="49.9142199754715" lon="6.04890595190227">
        <ele>464.02</ele>
        <time>2024-12-29T15:36:09.372Z</time>
      </trkpt>
      <trkpt lat="49.91436221636832" lon="6.0485713463276625">
        <ele>463.55</ele>
        <time>2024-12-29T15:36:18.702Z</time>
      </trkpt>
      <trkpt lat="49.91450395435095" lon="6.04823799803853">
        <ele>463.15</ele>
        <time>2024-12-29T15:36:28.066Z</time>
      </trkpt>
      <trkpt lat="49.914630940184" lon="6.047884952276945">
        <ele>462.7</ele>
        <time>2024-12-29T15:36:37.465Z</time>
      </trkpt>
      <trkpt lat="49.91470696404576" lon="6.047624945640564">
        <ele>462.09</ele>
        <time>2024-12-29T15:36:46.889Z</time>
      </trkpt>
      <trkpt lat="49.91476848721504" lon="6.047312133014202">
        <ele>461.43</ele>
        <time>2024-12-29T15:36:56.341Z</time>
      </trkpt>
      <trkpt lat="49.91482992656529" lon="6.04699932038784">
        <ele>460.74</ele>
        <time>2024-12-29T15:37:05.821Z</time>
      </trkpt>
      <trkpt lat="49.91489094682038" lon="6.046688938513398">
        <ele>460.0</ele>
        <time>2024-12-29T15:37:15.329Z</time>
      </trkpt>
      <trkpt lat="49.91491894237697" lon="6.046506967395544">
        <ele>459.24</ele>
        <time>2024-12-29T15:37:24.853Z</time>
      </trkpt>
      <trkpt lat="49.91493696346879" lon="6.046259952709079">
        <ele>458.41</ele>
        <time>2024-12-29T15:37:34.398Z</time>
      </trkpt>
      <trkpt lat="49.91493092849851" lon="6.045979997143149">
        <ele>457.47</ele>
        <time>2024-12-29T15:37:43.968Z</time>
      </trkpt>
      <trkpt lat="49.91490486077964" lon="6.045662071555853">
        <ele>456.42</ele>
        <time>2024-12-29T15:37:53.565Z</time>
      </trkpt>
      <trkpt lat="49.91487896069884" lon="6.045345989987254">
        <ele>455.28</ele>
        <time>2024-12-29T15:38:03.190Z</time>
      </trkpt>
      <trkpt lat="49.914814000949264" lon="6.044960422441363">
        <ele>453.99</ele>
        <time>2024-12-29T15:38:12.849Z</time>
      </trkpt>
      <trkpt lat="49.914749125018716" lon="6.044574938714504">
        <ele>452.62</ele>
        <time>2024-12-29T15:38:22.542Z</time>
      </trkpt>
      <trkpt lat="49.914684165269136" lon="6.044189454987645">
        <ele>451.23</ele>
        <time>2024-12-29T15:38:32.270Z</time>
      </trkpt>
      <trkpt lat="49.91461995989084" lon="6.043807994574308">
        <ele>449.74</ele>
        <time>2024-12-29T15:38:42.032Z</time>
      </trkpt>
      <trkpt lat="49.91457595489919" lon="6.043450925499201">
        <ele>448.12</ele>
        <time>2024-12-29T15:38:51.825Z</time>
      </trkpt>
      <trkpt lat="49.91457595489919" lon="6.0432719718664885">
        <ele>446.37</ele>
        <time>2024-12-29T15:39:01.633Z</time>
      </trkpt>
      <trkpt lat="49.914656672626734" lon="6.043034428730607">
        <ele>444.45</ele>
        <time>2024-12-29T15:39:11.464Z</time>
      </trkpt>
      <trkpt lat="49.91473697125912" lon="6.042797975242138">
        <ele>442.45</ele>
        <time>2024-12-29T15:39:21.319Z</time>
      </trkpt>
      <trkpt lat="49.91478399373591" lon="6.042635953053832">
        <ele>440.41</ele>
        <time>2024-12-29T15:39:31.189Z</time>
      </trkpt>
      <trkpt lat="49.914861945435405" lon="6.042559929192066">
        <ele>438.26</ele>
        <time>2024-12-29T15:39:41.071Z</time>
      </trkpt>
      <trkpt lat="49.91494392044842" lon="6.042512990534306">
        <ele>436.05</ele>
        <time>2024-12-29T15:39:50.965Z</time>
      </trkpt>
      <trkpt lat="49.91505799815059" lon="6.042281985282898">
        <ele>433.66</ele>
        <time>2024-12-29T15:40:00.884Z</time>
      </trkpt>
      <trkpt lat="49.91510694846511" lon="6.0420959908515215">
        <ele>431.29</ele>
        <time>2024-12-29T15:40:10.820Z</time>
      </trkpt>
      <trkpt lat="49.91510292515159" lon="6.0418809950351715">
        <ele>428.82</ele>
        <time>2024-12-29T15:40:20.775Z</time>
      </trkpt>
      <trkpt lat="49.91508398205042" lon="6.041723918169737">
        <ele>426.38</ele>
        <time>2024-12-29T15:40:30.743Z</time>
      </trkpt>
      <trkpt lat="49.91504299454391" lon="6.0415679309517145">
        <ele>423.92</ele>
        <time>2024-12-29T15:40:40.726Z</time>
      </trkpt>
      <trkpt lat="49.91498792544007" lon="6.041422924026847">
        <ele>421.43</ele>
        <time>2024-12-29T15:40:50.723Z</time>
      </trkpt>
      <trkpt lat="49.91487191990018" lon="6.04125595651567">
        <ele>418.94</ele>
        <time>2024-12-29T15:41:00.742Z</time>
      </trkpt>
      <trkpt lat="49.91478399373591" lon="6.041156966239214">
        <ele>416.48</ele>
        <time>2024-12-29T15:41:10.775Z</time>
      </trkpt>
      <trkpt lat="49.914666982367635" lon="6.0410719737410545">
        <ele>414.06</ele>
        <time>2024-12-29T15:41:20.825Z</time>
      </trkpt>
      <trkpt lat="49.914454920217395" lon="6.040961919352412">
        <ele>411.59</ele>
        <time>2024-12-29T15:41:30.905Z</time>
      </trkpt>
      <trkpt lat="49.91428996436298" lon="6.040904922410846">
        <ele>409.25</ele>
        <time>2024-12-29T15:41:41.008Z</time>
      </trkpt>
      <trkpt lat="49.914239924401045" lon="6.040876926854253">
        <ele>407.12</ele>
        <time>2024-12-29T15:41:51.118Z</time>
      </trkpt>
      <trkpt lat="49.914236990734935" lon="6.040834933519363">
        <ele>405.08</ele>
        <time>2024-12-29T15:42:01.232Z</time>
      </trkpt>
      <trkpt lat="49.91428594104946" lon="6.040797969326377">
        <ele>403.13</ele>
        <time>2024-12-29T15:42:11.353Z</time>
      </trkpt>
      <trkpt lat="49.91452792659402" lon="6.040718927979469">
        <ele>401.38</ele>
        <time>2024-12-29T15:42:21.507Z</time>
      </trkpt>
      <trkpt lat="49.91476899012923" lon="6.0406299121677876">
        <ele>399.55</ele>
        <time>2024-12-29T15:42:31.694Z</time>
      </trkpt>
      <trkpt lat="49.915009969845414" lon="6.0405409801751375">
        <ele>397.81</ele>
        <time>2024-12-29T15:42:41.914Z</time>
      </trkpt>
      <trkpt lat="49.915261678397655" lon="6.040420280769467">
        <ele>396.12</ele>
        <time>2024-12-29T15:42:52.169Z</time>
      </trkpt>
      <trkpt lat="49.9155133869499" lon="6.040299581363797">
        <ele>394.46</ele>
        <time>2024-12-29T15:43:02.459Z</time>
      </trkpt>
      <trkpt lat="49.915764927864075" lon="6.040178965777159">
        <ele>392.91</ele>
        <time>2024-12-29T15:43:12.784Z</time>
      </trkpt>
      <trkpt lat="49.91582494229078" lon="6.040115933865309">
        <ele>391.7</ele>
        <time>2024-12-29T15:43:23.119Z</time>
      </trkpt>
      <trkpt lat="49.915936924517155" lon="6.0401899460703135">
        <ele>390.76</ele>
        <time>2024-12-29T15:43:33.470Z</time>
      </trkpt>
      <trkpt lat="49.916088972240686" lon="6.0403109807521105">
        <ele>390.07</ele>
        <time>2024-12-29T15:43:43.844Z</time>
      </trkpt>
      <trkpt lat="49.91618293337524" lon="6.040435954928398">
        <ele>389.5</ele>
        <time>2024-12-29T15:43:54.235Z</time>
      </trkpt>
      <trkpt lat="49.916236996650696" lon="6.040570987388492">
        <ele>388.99</ele>
        <time>2024-12-29T15:44:04.639Z</time>
      </trkpt>
      <trkpt lat="49.91626692004502" lon="6.040729992091656">
        <ele>388.53</ele>
        <time>2024-12-29T15:44:15.058Z</time>
      </trkpt>
      <trkpt lat="49.9162885453552" lon="6.0410678666085005">
        <ele>388.16</ele>
        <time>2024-12-29T15:44:25.506Z</time>
      </trkpt>
      <trkpt lat="49.91630991920829" lon="6.041403980925679">
        <ele>387.74</ele>
        <time>2024-12-29T15:44:35.983Z</time>
      </trkpt>
      <trkpt lat="49.916342943906784" lon="6.041624927893281">
        <ele>387.25</ele>
        <time>2024-12-29T15:44:46.480Z</time>
      </trkpt>
      <trkpt lat="49.916387954726815" lon="6.041763983666897">
        <ele>386.66</ele>
        <time>2024-12-29T15:44:56.990Z</time>
      </trkpt>
      <trkpt lat="49.91644495166838" lon="6.041826931759715">
        <ele>385.96</ele>
        <time>2024-12-29T15:45:07.509Z</time>
      </trkpt>
      <trkpt lat="49.916515946388245" lon="6.041839923709631">
        <ele>385.18</ele>
        <time>2024-12-29T15:45:18.038Z</time>
      </trkpt>
      <trkpt lat="49.91667796857655" lon="6.0417979303747416">
        <ele>384.15</ele>
        <time>2024-12-29T15:45:28.589Z</time>
      </trkpt>
      <trkpt lat="49.91685298271477" lon="6.041764989495277">
        <ele>383.14</ele>
        <time>2024-12-29T15:45:39.163Z</time>
      </trkpt>
      <trkpt lat="49.917027996852994" lon="6.0417319647967815">
        <ele>382.15</ele>
        <time>2024-12-29T15:45:49.761Z</time>
      </trkpt>
      <trkpt lat="49.917245926335454" lon="6.041730958968401">
        <ele>381.13</ele>
        <time>2024-12-29T15:46:00.388Z</time>
      </trkpt>
      <trkpt lat="49.9174299929291" lon="6.041755937039852">
        <ele>380.17</ele>
        <time>2024-12-29T15:46:11.040Z</time>
      </trkpt>
      <trkpt lat="49.9176509398967" lon="6.041819974780083">
        <ele>379.26</ele>
        <time>2024-12-29T15:46:21.722Z</time>
      </trkpt>
      <trkpt lat="49.91787892766297" lon="6.0419549234211445">
        <ele>378.5</ele>
        <time>2024-12-29T15:46:32.436Z</time>
      </trkpt>
      <trkpt lat="49.91809853352606" lon="6.042112000286579">
        <ele>377.54</ele>
        <time>2024-12-29T15:46:43.183Z</time>
      </trkpt>
      <trkpt lat="49.918317971751094" lon="6.042268993332982">
        <ele>376.67</ele>
        <time>2024-12-29T15:46:53.962Z</time>
      </trkpt>
      <trkpt lat="49.9183539301157" lon="6.04230796918273">
        <ele>375.85</ele>
        <time>2024-12-29T15:47:04.747Z</time>
      </trkpt>
      <trkpt lat="49.91840195842087" lon="6.042359936982393">
        <ele>375.05</ele>
        <time>2024-12-29T15:47:15.539Z</time>
      </trkpt>
      <trkpt lat="49.9185299500823" lon="6.0423919558525085">
        <ele>374.12</ele>
        <time>2024-12-29T15:47:26.349Z</time>
      </trkpt>
      <trkpt lat="49.918711921200156" lon="6.04239497333765">
        <ele>373.07</ele>
        <time>2024-12-29T15:47:37.183Z</time>
      </trkpt>
      <trkpt lat="49.918935634195805" lon="6.0423792991787195">
        <ele>372.02</ele>
        <time>2024-12-29T15:47:48.047Z</time>
      </trkpt>
      <trkpt lat="49.91915926337242" lon="6.042363625019789">
        <ele>371.15</ele>
        <time>2024-12-29T15:47:58.941Z</time>
      </trkpt>
      <trkpt lat="49.91938297636807" lon="6.042347950860858">
        <ele>370.39</ele>
        <time>2024-12-29T15:48:09.865Z</time>
      </trkpt>
      <trkpt lat="49.919499987736344" lon="6.042370917275548">
        <ele>369.66</ele>
        <time>2024-12-29T15:48:20.804Z</time>
      </trkpt>
      <trkpt lat="49.91951297968626" lon="6.042528999969363">
        <ele>368.94</ele>
        <time>2024-12-29T15:48:31.757Z</time>
      </trkpt>
      <trkpt lat="49.91950694471598" lon="6.042882967740297">
        <ele>368.21</ele>
        <time>2024-12-29T15:48:42.741Z</time>
      </trkpt>
      <trkpt lat="49.91958095692098" lon="6.042860923334956">
        <ele>367.42</ele>
        <time>2024-12-29T15:48:53.735Z</time>
      </trkpt>
      <trkpt lat="49.91981347091496" lon="6.042793951928616">
        <ele>366.63</ele>
        <time>2024-12-29T15:49:04.760Z</time>
      </trkpt>
      <trkpt lat="49.92004598490894" lon="6.042726980522275">
        <ele>365.82</ele>
        <time>2024-12-29T15:49:15.817Z</time>
      </trkpt>
      <trkpt lat="49.92022896185517" lon="6.04265196248889">
        <ele>364.86</ele>
        <time>2024-12-29T15:49:26.899Z</time>
      </trkpt>
      <trkpt lat="49.92041462101042" lon="6.042623966932297">
        <ele>363.75</ele>
        <time>2024-12-29T15:49:38.006Z</time>
      </trkpt>
      <trkpt lat="49.920414788648486" lon="6.042623966932297">
        <ele>362.74</ele>
        <time>2024-12-29T15:49:49.113Z</time>
      </trkpt>
      <trkpt lat="49.92041495628655" lon="6.042623966932297">
        <ele>361.67</ele>
        <time>2024-12-29T15:50:00.220Z</time>
      </trkpt>
      <trkpt lat="49.92068191990256" lon="6.042622961103916">
        <ele>360.47</ele>
        <time>2024-12-29T15:50:11.363Z</time>
      </trkpt>
      <trkpt lat="49.92091694846749" lon="6.042577950283885">
        <ele>359.3</ele>
        <time>2024-12-29T15:50:22.537Z</time>
      </trkpt>
      <trkpt lat="49.92110495455563" lon="6.042623966932297">
        <ele>357.95</ele>
        <time>2024-12-29T15:50:33.737Z</time>
      </trkpt>
      <trkpt lat="49.92123294621706" lon="6.0427159164100885">
        <ele>356.51</ele>
        <time>2024-12-29T15:50:44.956Z</time>
      </trkpt>
      <trkpt lat="49.92144593037665" lon="6.043024957180023">
        <ele>354.78</ele>
        <time>2024-12-29T15:50:56.214Z</time>
      </trkpt>
      <trkpt lat="49.92164491675794" lon="6.043390994891524">
        <ele>352.98</ele>
        <time>2024-12-29T15:51:07.513Z</time>
      </trkpt>
      <trkpt lat="49.921758994460106" lon="6.043533990159631">
        <ele>351.25</ele>
        <time>2024-12-29T15:51:18.831Z</time>
      </trkpt>
      <trkpt lat="49.92181993089616" lon="6.04357598349452">
        <ele>349.54</ele>
        <time>2024-12-29T15:51:30.158Z</time>
      </trkpt>
      <trkpt lat="49.92191297002137" lon="6.043585957959294">
        <ele>347.77</ele>
        <time>2024-12-29T15:51:41.498Z</time>
      </trkpt>
      <trkpt lat="49.92198094725609" lon="6.043529966846108">
        <ele>346.04</ele>
        <time>2024-12-29T15:51:52.848Z</time>
      </trkpt>
      <trkpt lat="49.9220219347626" lon="6.043496942147613">
        <ele>344.28</ele>
        <time>2024-12-29T15:52:04.204Z</time>
      </trkpt>
      <trkpt lat="49.92211991921067" lon="6.04331698268652">
        <ele>342.5</ele>
        <time>2024-12-29T15:52:15.580Z</time>
      </trkpt>
      <trkpt lat="49.922241205349565" lon="6.042951615527272">
        <ele>340.62</ele>
        <time>2024-12-29T15:52:26.992Z</time>
      </trkpt>
      <trkpt lat="49.922361988574266" lon="6.042587924748659">
        <ele>338.55</ele>
        <time>2024-12-29T15:52:38.439Z</time>
      </trkpt>
      <trkpt lat="49.922423930838704" lon="6.042448952794075">
        <ele>336.59</ele>
        <time>2024-12-29T15:52:49.901Z</time>
      </trkpt>
      <trkpt lat="49.92246299050748" lon="6.042418945580721">
        <ele>334.69</ele>
        <time>2024-12-29T15:53:01.368Z</time>
      </trkpt>
      <trkpt lat="49.92252099327743" lon="6.042427998036146">
        <ele>332.79</ele>
        <time>2024-12-29T15:53:12.843Z</time>
      </trkpt>
      <trkpt lat="49.922577990219" lon="6.042496981099248">
        <ele>330.94</ele>
        <time>2024-12-29T15:53:24.328Z</time>
      </trkpt>
      <trkpt lat="49.92268519476056" lon="6.042749444022775">
        <ele>329.1</ele>
        <time>2024-12-29T15:53:35.839Z</time>
      </trkpt>
      <trkpt lat="49.922791980206966" lon="6.043000984936953">
        <ele>327.25</ele>
        <time>2024-12-29T15:53:47.376Z</time>
      </trkpt>
      <trkpt lat="49.9228679202497" lon="6.043064938858151">
        <ele>325.43</ele>
        <time>2024-12-29T15:53:58.924Z</time>
      </trkpt>
      <trkpt lat="49.92295299656689" lon="6.043072985485196">
        <ele>323.61</ele>
        <time>2024-12-29T15:54:10.484Z</time>
      </trkpt>
      <trkpt lat="49.92316195741296" lon="6.043007941916585">
        <ele>321.69</ele>
        <time>2024-12-29T15:54:22.072Z</time>
      </trkpt>
      <trkpt lat="49.92318492382765" lon="6.04286796413362">
        <ele>319.93</ele>
        <time>2024-12-29T15:54:33.673Z</time>
      </trkpt>
      <trkpt lat="49.923196993768215" lon="6.0424199514091015">
        <ele>318.16</ele>
        <time>2024-12-29T15:54:45.312Z</time>
      </trkpt>
      <trkpt lat="49.92321099154651" lon="6.042269999161363">
        <ele>316.52</ele>
        <time>2024-12-29T15:54:56.964Z</time>
      </trkpt>
      <trkpt lat="49.92325499653816" lon="6.04213597252965">
        <ele>314.91</ele>
        <time>2024-12-29T15:55:08.629Z</time>
      </trkpt>
      <trkpt lat="49.92331392131746" lon="6.042027929797769">
        <ele>313.33</ele>
        <time>2024-12-29T15:55:20.307Z</time>
      </trkpt>
      <trkpt lat="49.92337695322931" lon="6.041968921199441">
        <ele>311.84</ele>
        <time>2024-12-29T15:55:31.994Z</time>
      </trkpt>
      <trkpt lat="49.92359094321728" lon="6.04200697503984">
        <ele>310.41</ele>
        <time>2024-12-29T15:55:43.710Z</time>
      </trkpt>
      <trkpt lat="49.9236639495939" lon="6.0419669933617115">
        <ele>309.03</ele>
        <time>2024-12-29T15:55:55.436Z</time>
      </trkpt>
      <trkpt lat="49.92372597567737" lon="6.04183891788125">
        <ele>307.69</ele>
        <time>2024-12-29T15:56:07.176Z</time>
      </trkpt>
      <trkpt lat="49.923737961798906" lon="6.041613947600126">
        <ele>306.31</ele>
        <time>2024-12-29T15:56:18.936Z</time>
      </trkpt>
      <trkpt lat="49.923713989555836" lon="6.041548987850547">
        <ele>305.11</ele>
        <time>2024-12-29T15:56:30.702Z</time>
      </trkpt>
      <trkpt lat="49.92368197068572" lon="6.0415099281817675">
        <ele>303.98</ele>
        <time>2024-12-29T15:56:42.474Z</time>
      </trkpt>
      <trkpt lat="49.92361592128873" lon="6.041503977030516">
        <ele>302.93</ele>
        <time>2024-12-29T15:56:54.254Z</time>
      </trkpt>
      <trkpt lat="49.923613993451" lon="6.041412949562073">
        <ele>301.89</ele>
        <time>2024-12-29T15:57:06.042Z</time>
      </trkpt>
      <trkpt lat="49.92358339950442" lon="6.041146740317345">
        <ele>300.86</ele>
        <time>2024-12-29T15:57:17.854Z</time>
      </trkpt>
      <trkpt lat="49.92355297319591" lon="6.040881955996156">
        <ele>299.8</ele>
        <time>2024-12-29T15:57:29.689Z</time>
      </trkpt>
      <trkpt lat="49.92357099428773" lon="6.0407359432429075">
        <ele>298.93</ele>
        <time>2024-12-29T15:57:41.537Z</time>
      </trkpt>
      <trkpt lat="49.92360292933881" lon="6.040642987936735">
        <ele>298.16</ele>
        <time>2024-12-29T15:57:53.394Z</time>
      </trkpt>
      <trkpt lat="49.923518942669034" lon="6.040630917996168">
        <ele>297.47</ele>
        <time>2024-12-29T15:58:05.262Z</time>
      </trkpt>
      <trkpt lat="49.923477955162525" lon="6.040644999593496">
        <ele>296.93</ele>
        <time>2024-12-29T15:58:17.135Z</time>
      </trkpt>
      <trkpt lat="49.92341995239258" lon="6.04073996655643">
        <ele>296.54</ele>
        <time>2024-12-29T15:58:29.020Z</time>
      </trkpt>
      <trkpt lat="49.92335599847138" lon="6.040771985426545">
        <ele>296.15</ele>
        <time>2024-12-29T15:58:40.914Z</time>
      </trkpt>
      <trkpt lat="49.92325994186103" lon="6.040908945724368">
        <ele>295.94</ele>
        <time>2024-12-29T15:58:52.825Z</time>
      </trkpt>
      <trkpt lat="49.92320395074785" lon="6.040961919352412">
        <ele>295.74</ele>
        <time>2024-12-29T15:59:04.745Z</time>
      </trkpt>
      <trkpt lat="49.92314896546304" lon="6.040967954322696">
        <ele>295.54</ele>
        <time>2024-12-29T15:59:16.672Z</time>
      </trkpt>
      <trkpt lat="49.923067996278405" lon="6.041010953485966">
        <ele>295.46</ele>
        <time>2024-12-29T15:59:28.611Z</time>
      </trkpt>
      <trkpt lat="49.9229889549315" lon="6.041002990677953">
        <ele>295.38</ele>
        <time>2024-12-29T15:59:40.560Z</time>
      </trkpt>
      <trkpt lat="49.92283891886473" lon="6.041027968749404">
        <ele>295.4</ele>
        <time>2024-12-29T15:59:52.529Z</time>
      </trkpt>
      <trkpt lat="49.92275392636657" lon="6.041008941829205">
        <ele>295.43</ele>
        <time>2024-12-29T16:00:04.510Z</time>
      </trkpt>
      <trkpt lat="49.922580840066075" lon="6.040865359827876">
        <ele>295.27</ele>
        <time>2024-12-29T16:00:16.517Z</time>
      </trkpt>
      <trkpt lat="49.92240792140365" lon="6.040721945464611">
        <ele>295.08</ele>
        <time>2024-12-29T16:00:28.550Z</time>
      </trkpt>
      <trkpt lat="49.92237699218094" lon="6.040721945464611">
        <ele>295.29</ele>
        <time>2024-12-29T16:00:40.587Z</time>
      </trkpt>
      <trkpt lat="49.92230297997594" lon="6.040814984589815">
        <ele>295.84</ele>
        <time>2024-12-29T16:00:52.637Z</time>
      </trkpt>
      <trkpt lat="49.92227992974222" lon="6.040829988196492">
        <ele>296.24</ele>
        <time>2024-12-29T16:01:04.690Z</time>
      </trkpt>
      <trkpt lat="49.922231985256076" lon="6.040814984589815">
        <ele>296.61</ele>
        <time>2024-12-29T16:01:16.750Z</time>
      </trkpt>
      <trkpt lat="49.92207599803805" lon="6.040876926854253">
        <ele>297.28</ele>
        <time>2024-12-29T16:01:28.831Z</time>
      </trkpt>
      <trkpt lat="49.921908946707845" lon="6.040876926854253">
        <ele>297.83</ele>
        <time>2024-12-29T16:01:40.935Z</time>
      </trkpt>
      <trkpt lat="49.921804927289486" lon="6.040913974866271">
        <ele>298.61</ele>
        <time>2024-12-29T16:01:53.053Z</time>
      </trkpt>
      <trkpt lat="49.9217629339546" lon="6.040914980694652">
        <ele>299.2</ele>
        <time>2024-12-29T16:02:05.177Z</time>
      </trkpt>
      <trkpt lat="49.921715995296836" lon="6.040917998179793">
        <ele>299.78</ele>
        <time>2024-12-29T16:02:17.307Z</time>
      </trkpt>
      <trkpt lat="49.92165799252689" lon="6.040878938511014">
        <ele>300.24</ele>
        <time>2024-12-29T16:02:29.445Z</time>
      </trkpt>
      <trkpt lat="49.9215729162097" lon="6.040779948234558">
        <ele>300.48</ele>
        <time>2024-12-29T16:02:41.598Z</time>
      </trkpt>
      <trkpt lat="49.921544920653105" lon="6.040780954062939">
        <ele>301.18</ele>
        <time>2024-12-29T16:02:53.754Z</time>
      </trkpt>
      <trkpt lat="49.921522960066795" lon="6.04080593213439">
        <ele>302.02</ele>
        <time>2024-12-29T16:03:05.914Z</time>
      </trkpt>
      <trkpt lat="49.92151692509651" lon="6.040874999016523">
        <ele>303.06</ele>
        <time>2024-12-29T16:03:18.080Z</time>
      </trkpt>
      <trkpt lat="49.92149395868182" lon="6.040973989292979">
        <ele>304.21</ele>
        <time>2024-12-29T16:03:30.255Z</time>
      </trkpt>
      <trkpt lat="49.921437967568636" lon="6.0410289745777845">
        <ele>305.23</ele>
        <time>2024-12-29T16:03:42.439Z</time>
      </trkpt>
      <trkpt lat="49.92138993926346" lon="6.041057975962758">
        <ele>306.12</ele>
        <time>2024-12-29T16:03:54.630Z</time>
      </trkpt>
      <trkpt lat="49.92134694010019" lon="6.041045989841223">
        <ele>306.84</ele>
        <time>2024-12-29T16:04:06.827Z</time>
      </trkpt>
      <trkpt lat="49.9213189445436" lon="6.041087983176112">
        <ele>307.73</ele>
        <time>2024-12-29T16:04:19.029Z</time>
      </trkpt>
      <trkpt lat="49.92122791707516" lon="6.04114992544055">
        <ele>308.75</ele>
        <time>2024-12-29T16:04:31.244Z</time>
      </trkpt>
      <trkpt lat="49.921175949275494" lon="6.041151937097311">
        <ele>309.39</ele>
        <time>2024-12-29T16:04:43.466Z</time>
      </trkpt>
      <trkpt lat="49.92106195539236" lon="6.041081948205829">
        <ele>309.66</ele>
        <time>2024-12-29T16:04:55.704Z</time>
      </trkpt>
      <trkpt lat="49.921005964279175" lon="6.041113967075944">
        <ele>310.21</ele>
        <time>2024-12-29T16:05:07.950Z</time>
      </trkpt>
      <trkpt lat="49.92095994763076" lon="6.041116984561086">
        <ele>310.6</ele>
        <time>2024-12-29T16:05:20.202Z</time>
      </trkpt>
      <trkpt lat="49.92088794708252" lon="6.041076919063926">
        <ele>310.83</ele>
        <time>2024-12-29T16:05:32.465Z</time>
      </trkpt>
      <trkpt lat="49.92086892016232" lon="6.041055964305997">
        <ele>311.04</ele>
        <time>2024-12-29T16:05:44.731Z</time>
      </trkpt>
      <trkpt lat="49.920858945697546" lon="6.0410289745777845">
        <ele>311.17</ele>
        <time>2024-12-29T16:05:56.999Z</time>
      </trkpt>
      <trkpt lat="49.9208249989897" lon="6.040996955707669">
        <ele>311.25</ele>
        <time>2024-12-29T16:06:09.273Z</time>
      </trkpt>
      <trkpt lat="49.92079792544246" lon="6.040929984301329">
        <ele>311.14</ele>
        <time>2024-12-29T16:06:21.554Z</time>
      </trkpt>
      <trkpt lat="49.92076397873461" lon="6.04091296903789">
        <ele>311.2</ele>
        <time>2024-12-29T16:06:33.839Z</time>
      </trkpt>
      <trkpt lat="49.92073497734964" lon="6.040919926017523">
        <ele>311.32</ele>
        <time>2024-12-29T16:06:46.128Z</time>
      </trkpt>
      <trkpt lat="49.92073095403612" lon="6.040959991514683">
        <ele>311.52</ele>
        <time>2024-12-29T16:06:58.421Z</time>
      </trkpt>
      <trkpt lat="49.920702958479524" lon="6.040989998728037">
        <ele>311.67</ele>
        <time>2024-12-29T16:07:10.718Z</time>
      </trkpt>
      <trkpt lat="49.92069097235799" lon="6.041046995669603">
        <ele>311.88</ele>
        <time>2024-12-29T16:07:23.020Z</time>
      </trkpt>
      <trkpt lat="49.920661970973015" lon="6.041095945984125">
        <ele>312.04</ele>
        <time>2024-12-29T16:07:35.328Z</time>
      </trkpt>
      <trkpt lat="49.92059097625315" lon="6.041144980117679">
        <ele>312.17</ele>
        <time>2024-12-29T16:07:47.647Z</time>
      </trkpt>
      <trkpt lat="49.92052299901843" lon="6.041133999824524">
        <ele>312.05</ele>
        <time>2024-12-29T16:07:59.975Z</time>
      </trkpt>
      <trkpt lat="49.92048595100641" lon="6.0410799365490675">
        <ele>311.72</ele>
        <time>2024-12-29T16:08:12.309Z</time>
      </trkpt>
      <trkpt lat="49.920447980985045" lon="6.041054958477616">
        <ele>311.48</ele>
        <time>2024-12-29T16:08:24.649Z</time>
      </trkpt>
      <trkpt lat="49.92035494185984" lon="6.041050935164094">
        <ele>311.35</ele>
        <time>2024-12-29T16:08:37.001Z</time>
      </trkpt>
      <trkpt lat="49.920299956575036" lon="6.041011959314346">
        <ele>311.06</ele>
        <time>2024-12-29T16:08:49.361Z</time>
      </trkpt>
      <trkpt lat="49.92018495686352" lon="6.040784977376461">
        <ele>310.06</ele>
        <time>2024-12-29T16:09:01.746Z</time>
      </trkpt>
      <trkpt lat="49.9201309774071" lon="6.040764944627881">
        <ele>309.87</ele>
        <time>2024-12-29T16:09:14.139Z</time>
      </trkpt>
      <trkpt lat="49.92007791996002" lon="6.040847925469279">
        <ele>310.19</ele>
        <time>2024-12-29T16:09:26.542Z</time>
      </trkpt>
      <trkpt lat="49.919994939118624" lon="6.040761927142739">
        <ele>309.95</ele>
        <time>2024-12-29T16:09:38.958Z</time>
      </trkpt>
      <trkpt lat="49.91995797492564" lon="6.040698979049921">
        <ele>309.75</ele>
        <time>2024-12-29T16:09:51.381Z</time>
      </trkpt>
      <trkpt lat="49.91990491747856" lon="6.040680957958102">
        <ele>309.81</ele>
        <time>2024-12-29T16:10:03.812Z</time>
      </trkpt>
      <trkpt lat="49.919848926365376" lon="6.040713982656598">
        <ele>310.12</ele>
        <time>2024-12-29T16:10:16.251Z</time>
      </trkpt>
      <trkpt lat="49.91983199492097" lon="6.0406979732215405">
        <ele>310.2</ele>
        <time>2024-12-29T16:10:28.692Z</time>
      </trkpt>
      <trkpt lat="49.91981891915202" lon="6.0406699776649475">
        <ele>310.26</ele>
        <time>2024-12-29T16:10:41.136Z</time>
      </trkpt>
      <trkpt lat="49.91979796439409" lon="6.040665954351425">
        <ele>310.44</ele>
        <time>2024-12-29T16:10:53.583Z</time>
      </trkpt>
      <trkpt lat="49.919780949130654" lon="6.040682969614863">
        <ele>310.71</ele>
        <time>2024-12-29T16:11:06.033Z</time>
      </trkpt>
      <trkpt lat="49.9197559710592" lon="6.040753964334726">
        <ele>311.19</ele>
        <time>2024-12-29T16:11:18.490Z</time>
      </trkpt>
      <trkpt lat="49.91972797550261" lon="6.040810961276293">
        <ele>311.62</ele>
        <time>2024-12-29T16:11:30.953Z</time>
      </trkpt>
      <trkpt lat="49.9197009857744" lon="6.040828982368112">
        <ele>311.87</ele>
        <time>2024-12-29T16:11:43.420Z</time>
      </trkpt>
      <trkpt lat="49.919672990217805" lon="6.040818924084306">
        <ele>311.97</ele>
        <time>2024-12-29T16:11:55.891Z</time>
      </trkpt>
      <trkpt lat="49.91958095692098" lon="6.0406549740582705">
        <ele>311.6</ele>
        <time>2024-12-29T16:12:08.380Z</time>
      </trkpt>
      <trkpt lat="49.919548938050866" lon="6.040645921602845">
        <ele>311.62</ele>
        <time>2024-12-29T16:12:20.874Z</time>
      </trkpt>
      <trkpt lat="49.919503927230835" lon="6.040592947974801">
        <ele>311.44</ele>
        <time>2024-12-29T16:12:33.375Z</time>
      </trkpt>
      <trkpt lat="49.919350957497954" lon="6.040473924949765">
        <ele>311.13</ele>
        <time>2024-12-29T16:12:45.899Z</time>
      </trkpt>
      <trkpt lat="49.919308964163065" lon="6.040398990735412">
        <ele>310.77</ele>
        <time>2024-12-29T16:12:58.432Z</time>
      </trkpt>
      <trkpt lat="49.91922799497843" lon="6.040312992408872">
        <ele>310.53</ele>
        <time>2024-12-29T16:13:10.978Z</time>
      </trkpt>
      <trkpt lat="49.91918499581516" lon="6.040292959660292">
        <ele>310.29</ele>
        <time>2024-12-29T16:13:23.530Z</time>
      </trkpt>
      <trkpt lat="49.91914794780314" lon="6.040228921920061">
        <ele>309.87</ele>
        <time>2024-12-29T16:13:36.089Z</time>
      </trkpt>
      <trkpt lat="49.91910494863987" lon="6.040190951898694">
        <ele>309.43</ele>
        <time>2024-12-29T16:13:48.655Z</time>
      </trkpt>
      <trkpt lat="49.91903797723353" lon="6.040081987157464">
        <ele>308.84</ele>
        <time>2024-12-29T16:14:01.234Z</time>
      </trkpt>
      <trkpt lat="49.919028924778104" lon="6.0400609485805035">
        <ele>308.15</ele>
        <time>2024-12-29T16:14:13.815Z</time>
      </trkpt>
      <trkpt lat="49.919006964191794" lon="6.0400529857724905">
        <ele>307.44</ele>
        <time>2024-12-29T16:14:26.399Z</time>
      </trkpt>
      <trkpt lat="49.91898198612034" lon="6.040025996044278">
        <ele>306.57</ele>
        <time>2024-12-29T16:14:38.987Z</time>
      </trkpt>
      <trkpt lat="49.91894996725023" lon="6.0400099866092205">
        <ele>305.64</ele>
        <time>2024-12-29T16:14:51.580Z</time>
      </trkpt>
      <trkpt lat="49.91880898363888" lon="6.039813933894038">
        <ele>304.44</ele>
        <time>2024-12-29T16:15:04.198Z</time>
      </trkpt>
      <trkpt lat="49.918774953112006" lon="6.039690971374512">
        <ele>303.03</ele>
        <time>2024-12-29T16:15:16.827Z</time>
      </trkpt>
      <trkpt lat="49.9187199678272" lon="6.039551999419928">
        <ele>301.52</ele>
        <time>2024-12-29T16:15:29.470Z</time>
      </trkpt>
      <trkpt lat="49.91869096644223" lon="6.039426941424608">
        <ele>299.92</ele>
        <time>2024-12-29T16:15:42.125Z</time>
      </trkpt>
      <trkpt lat="49.91865693591535" lon="6.0393529292196035">
        <ele>298.34</ele>
        <time>2024-12-29T16:15:54.788Z</time>
      </trkpt>
      <trkpt lat="49.91864897310734" lon="6.039332980290055">
        <ele>296.71</ele>
        <time>2024-12-29T16:16:07.453Z</time>
      </trkpt>
      <trkpt lat="49.91861091926694" lon="6.039113961160183">
        <ele>294.82</ele>
        <time>2024-12-29T16:16:20.137Z</time>
      </trkpt>
      <trkpt lat="49.9186129309237" lon="6.039046989753842">
        <ele>292.94</ele>
        <time>2024-12-29T16:16:32.827Z</time>
      </trkpt>
      <trkpt lat="49.91860496811569" lon="6.039032991975546">
        <ele>291.1</ele>
        <time>2024-12-29T16:16:45.519Z</time>
      </trkpt>
      <trkpt lat="49.91856096312404" lon="6.039019916206598">
        <ele>289.28</ele>
        <time>2024-12-29T16:16:58.217Z</time>
      </trkpt>
      <trkpt lat="49.918514946475625" lon="6.0389859694987535">
        <ele>287.37</ele>
        <time>2024-12-29T16:17:10.921Z</time>
      </trkpt>
      <trkpt lat="49.91848695091903" lon="6.038939952850342">
        <ele>285.33</ele>
        <time>2024-12-29T16:17:23.631Z</time>
      </trkpt>
      <trkpt lat="49.91848493926227" lon="6.038838950917125">
        <ele>283.13</ele>
        <time>2024-12-29T16:17:36.350Z</time>
      </trkpt>
      <trkpt lat="49.91852299310267" lon="6.0387129709124565">
        <ele>280.82</ele>
        <time>2024-12-29T16:17:49.081Z</time>
      </trkpt>
      <trkpt lat="49.91864796727896" lon="6.038513984531164">
        <ele>278.24</ele>
        <time>2024-12-29T16:18:01.836Z</time>
      </trkpt>
      <trkpt lat="49.918731953948736" lon="6.038514990359545">
        <ele>275.81</ele>
        <time>2024-12-29T16:18:14.602Z</time>
      </trkpt>
      <trkpt lat="49.91884293034673" lon="6.038105953484774">
        <ele>273.15</ele>
        <time>2024-12-29T16:18:27.406Z</time>
      </trkpt>
      <trkpt lat="49.91888592951" lon="6.038002939894795">
        <ele>270.79</ele>
        <time>2024-12-29T16:18:40.221Z</time>
      </trkpt>
      <trkpt lat="49.918959941715" lon="6.037909984588623">
        <ele>268.36</ele>
        <time>2024-12-29T16:18:53.048Z</time>
      </trkpt>
      <trkpt lat="49.91910092532635" lon="6.037813927978277">
        <ele>266.04</ele>
        <time>2024-12-29T16:19:05.896Z</time>
      </trkpt>
      <trkpt lat="49.919136967509985" lon="6.037730947136879">
        <ele>264.08</ele>
        <time>2024-12-29T16:19:18.752Z</time>
      </trkpt>
      <trkpt lat="49.91914694197476" lon="6.03768995963037">
        <ele>262.27</ele>
        <time>2024-12-29T16:19:31.612Z</time>
      </trkpt>
      <trkpt lat="49.91912699304521" lon="6.037616953253746">
        <ele>260.61</ele>
        <time>2024-12-29T16:19:44.479Z</time>
      </trkpt>
      <trkpt lat="49.9190809763968" lon="6.037571942433715">
        <ele>259.09</ele>
        <time>2024-12-29T16:19:57.353Z</time>
      </trkpt>
      <trkpt lat="49.91906295530498" lon="6.0375399235636">
        <ele>257.65</ele>
        <time>2024-12-29T16:20:10.231Z</time>
      </trkpt>
      <trkpt lat="49.91907167248428" lon="6.0375249199569225">
        <ele>256.3</ele>
        <time>2024-12-29T16:20:23.111Z</time>
      </trkpt>
      <trkpt lat="49.919091956689954" lon="6.037489967420697">
        <ele>255.05</ele>
        <time>2024-12-29T16:20:35.995Z</time>
      </trkpt>
      <trkpt lat="49.91915197111666" lon="6.037409920245409">
        <ele>253.87</ele>
        <time>2024-12-29T16:20:48.889Z</time>
      </trkpt>
      <trkpt lat="49.91921491920948" lon="6.037381924688816">
        <ele>252.77</ele>
        <time>2024-12-29T16:21:01.792Z</time>
      </trkpt>
      <trkpt lat="49.91923495195806" lon="6.037342948839068">
        <ele>251.83</ele>
        <time>2024-12-29T16:21:14.699Z</time>
      </trkpt>
      <trkpt lat="49.91922992281616" lon="6.037307996302843">
        <ele>251.0</ele>
        <time>2024-12-29T16:21:27.609Z</time>
      </trkpt>
      <trkpt lat="49.919245932251215" lon="6.037273965775967">
        <ele>250.23</ele>
        <time>2024-12-29T16:21:40.523Z</time>
      </trkpt>
      <trkpt lat="49.919241992756724" lon="6.037255944684148">
        <ele>249.57</ele>
        <time>2024-12-29T16:21:53.439Z</time>
      </trkpt>
      <trkpt lat="49.919242998585105" lon="6.037227949127555">
        <ele>248.97</ele>
        <time>2024-12-29T16:22:06.357Z</time>
      </trkpt>
      <trkpt lat="49.91944491863251" lon="6.037168940529227">
        <ele>248.24</ele>
        <time>2024-12-29T16:22:19.303Z</time>
      </trkpt>
      <trkpt lat="49.91966494359076" lon="6.037047989666462">
        <ele>247.62</ele>
        <time>2024-12-29T16:22:32.280Z</time>
      </trkpt>
      <trkpt lat="49.919804921373725" lon="6.037035919725895">
        <ele>247.15</ele>
        <time>2024-12-29T16:22:45.275Z</time>
      </trkpt>
      <trkpt lat="49.919843981042504" lon="6.037014964967966">
        <ele>246.82</ele>
        <time>2024-12-29T16:22:58.276Z</time>
      </trkpt>
      <trkpt lat="49.9198719765991" lon="6.036971965804696">
        <ele>246.58</ele>
        <time>2024-12-29T16:23:11.282Z</time>
      </trkpt>
      <trkpt lat="49.91992092691362" lon="6.036931984126568">
        <ele>246.4</ele>
        <time>2024-12-29T16:23:24.296Z</time>
      </trkpt>
      <trkpt lat="49.92001195438206" lon="6.036880938336253">
        <ele>246.31</ele>
        <time>2024-12-29T16:23:37.323Z</time>
      </trkpt>
      <trkpt lat="49.92021697573364" lon="6.0369199980050325">
        <ele>246.21</ele>
        <time>2024-12-29T16:23:50.377Z</time>
      </trkpt>
      <trkpt lat="49.92027196101844" lon="6.036921925842762">
        <ele>246.19</ele>
        <time>2024-12-29T16:24:03.438Z</time>
      </trkpt>
      <trkpt lat="49.9203069973737" lon="6.036923937499523">
        <ele>246.21</ele>
        <time>2024-12-29T16:24:16.504Z</time>
      </trkpt>
      <trkpt lat="49.92039198987186" lon="6.036902982741594">
        <ele>246.28</ele>
        <time>2024-12-29T16:24:29.582Z</time>
      </trkpt>
      <trkpt lat="49.92063892073929" lon="6.03676694445312">
        <ele>246.36</ele>
        <time>2024-12-29T16:24:42.695Z</time>
      </trkpt>
      <trkpt lat="49.92060991935432" lon="6.036936929449439">
        <ele>246.48</ele>
        <time>2024-12-29T16:24:55.823Z</time>
      </trkpt>
      <trkpt lat="49.920575972646475" lon="6.037022927775979">
        <ele>246.67</ele>
        <time>2024-12-29T16:25:08.959Z</time>
      </trkpt>
      <trkpt lat="49.92055292241275" lon="6.037061987444758">
        <ele>246.88</ele>
        <time>2024-12-29T16:25:22.100Z</time>
      </trkpt>
      <trkpt lat="49.92028394713998" lon="6.037171958014369">
        <ele>247.17</ele>
        <time>2024-12-29T16:25:35.278Z</time>
      </trkpt>
      <trkpt lat="49.920295933261514" lon="6.037242952734232">
        <ele>247.46</ele>
        <time>2024-12-29T16:25:48.462Z</time>
      </trkpt>
      <trkpt lat="49.920337088406086" lon="6.037484100088477">
        <ele>247.85</ele>
        <time>2024-12-29T16:26:01.668Z</time>
      </trkpt>
      <trkpt lat="49.92037799209356" lon="6.037723990157247">
        <ele>248.32</ele>
        <time>2024-12-29T16:26:14.895Z</time>
      </trkpt>
      <trkpt lat="49.92025192826986" lon="6.037782998755574">
        <ele>248.64</ele>
        <time>2024-12-29T16:26:28.140Z</time>
      </trkpt>
      <trkpt lat="49.920253939926624" lon="6.037793979048729">
        <ele>248.95</ele>
        <time>2024-12-29T16:26:41.386Z</time>
      </trkpt>
      <trkpt lat="49.92017598822713" lon="6.037823986262083">
        <ele>249.23</ele>
        <time>2024-12-29T16:26:54.643Z</time>
      </trkpt>
      <trkpt lat="49.92013399489224" lon="6.037821974605322">
        <ele>249.49</ele>
        <time>2024-12-29T16:27:07.905Z</time>
      </trkpt>
      <trkpt lat="49.920080937445164" lon="6.037863967940211">
        <ele>249.78</ele>
        <time>2024-12-29T16:27:21.175Z</time>
      </trkpt>
      <trkpt lat="49.920072639361024" lon="6.037864219397306">
        <ele>250.04</ele>
        <time>2024-12-29T16:27:34.446Z</time>
      </trkpt>
      <trkpt lat="49.91996292024851" lon="6.037867991253734">
        <ele>250.26</ele>
        <time>2024-12-29T16:27:47.732Z</time>
      </trkpt>
      <trkpt lat="49.91989997215569" lon="6.037897998467088">
        <ele>250.5</ele>
        <time>2024-12-29T16:28:01.027Z</time>
      </trkpt>
      <trkpt lat="49.91979695856571" lon="6.0379949770867825">
        <ele>250.76</ele>
        <time>2024-12-29T16:28:14.338Z</time>
      </trkpt>
      <trkpt lat="49.919607946649194" lon="6.038215924054384">
        <ele>251.05</ele>
        <time>2024-12-29T16:28:27.680Z</time>
      </trkpt>
      <trkpt lat="49.91952798329294" lon="6.038365960121155">
        <ele>251.32</ele>
        <time>2024-12-29T16:28:41.039Z</time>
      </trkpt>
      <trkpt lat="49.9194919411093" lon="6.038550948724151">
        <ele>251.57</ele>
        <time>2024-12-29T16:28:54.415Z</time>
      </trkpt>
      <trkpt lat="49.919478949159384" lon="6.038765944540501">
        <ele>251.79</ele>
        <time>2024-12-29T16:29:07.809Z</time>
      </trkpt>
      <trkpt lat="49.91948892362416" lon="6.038812967017293">
        <ele>252.04</ele>
        <time>2024-12-29T16:29:21.208Z</time>
      </trkpt>
      <trkpt lat="49.91951792500913" lon="6.038940958678722">
        <ele>252.28</ele>
        <time>2024-12-29T16:29:34.618Z</time>
      </trkpt>
      <trkpt lat="49.919634936377406" lon="6.0391199961304665">
        <ele>252.47</ele>
        <time>2024-12-29T16:29:48.050Z</time>
      </trkpt>
      <trkpt lat="49.91976896300912" lon="6.039241952821612">
        <ele>252.66</ele>
        <time>2024-12-29T16:30:01.503Z</time>
      </trkpt>
      <trkpt lat="49.919931991025805" lon="6.039296938106418">
        <ele>252.96</ele>
        <time>2024-12-29T16:30:14.978Z</time>
      </trkpt>
      <trkpt lat="49.920166935771704" lon="6.039302973076701">
        <ele>253.36</ele>
        <time>2024-12-29T16:30:28.485Z</time>
      </trkpt>
      <trkpt lat="49.92043498903513" lon="6.039242958649993">
        <ele>253.85</ele>
        <time>2024-12-29T16:30:42.028Z</time>
      </trkpt>
      <trkpt lat="49.92064663209021" lon="6.039156289771199">
        <ele>254.39</ele>
        <time>2024-12-29T16:30:55.600Z</time>
      </trkpt>
      <trkpt lat="49.920858358964324" lon="6.0390696208924055">
        <ele>254.92</ele>
        <time>2024-12-29T16:31:09.201Z</time>
      </trkpt>
      <trkpt lat="49.921069918200374" lon="6.038982952013612">
        <ele>255.41</ele>
        <time>2024-12-29T16:31:22.832Z</time>
      </trkpt>
      <trkpt lat="49.92134098894894" lon="6.038891421630979">
        <ele>255.82</ele>
        <time>2024-12-29T16:31:36.500Z</time>
      </trkpt>
      <trkpt lat="49.92161205969751" lon="6.038799975067377">
        <ele>256.25</ele>
        <time>2024-12-29T16:31:50.205Z</time>
      </trkpt>
      <trkpt lat="49.921883046627045" lon="6.038708444684744">
        <ele>256.6</ele>
        <time>2024-12-29T16:32:03.947Z</time>
      </trkpt>
      <trkpt lat="49.92215394973755" lon="6.038616998121142">
        <ele>256.81</ele>
        <time>2024-12-29T16:32:17.726Z</time>
      </trkpt>
      <trkpt lat="49.92204993031919" lon="6.038539968430996">
        <ele>257.36</ele>
        <time>2024-12-29T16:32:31.520Z</time>
      </trkpt>
      <trkpt lat="49.921949934214354" lon="6.0385069437325">
        <ele>257.74</ele>
        <time>2024-12-29T16:32:45.328Z</time>
      </trkpt>
      <trkpt lat="49.921758994460106" lon="6.038522953167558">
        <ele>258.07</ele>
        <time>2024-12-29T16:32:59.161Z</time>
      </trkpt>
      <trkpt lat="49.92149295285344" lon="6.038596965372562">
        <ele>258.26</ele>
        <time>2024-12-29T16:33:13.030Z</time>
      </trkpt>
      <trkpt lat="49.92140896618366" lon="6.038604928180575">
        <ele>258.45</ele>
        <time>2024-12-29T16:33:26.910Z</time>
      </trkpt>
      <trkpt lat="49.92129698395729" lon="6.038649855181575">
        <ele>258.61</ele>
        <time>2024-12-29T16:33:40.806Z</time>
      </trkpt>
      <trkpt lat="49.92129698395729" lon="6.0386499390006065">
        <ele>258.74</ele>
        <time>2024-12-29T16:33:54.702Z</time>
      </trkpt>
      <trkpt lat="49.92129681631923" lon="6.0386499390006065">
        <ele>258.84</ele>
        <time>2024-12-29T16:34:08.598Z</time>
      </trkpt>
      <trkpt lat="49.921159939840436" lon="6.038687992841005">
        <ele>258.93</ele>
        <time>2024-12-29T16:34:22.512Z</time>
      </trkpt>
      <trkpt lat="49.920940920710564" lon="6.038687992841005">
        <ele>259.02</ele>
        <time>2024-12-29T16:34:36.456Z</time>
      </trkpt>
      <trkpt lat="49.92068996652961" lon="6.038627978414297">
        <ele>259.04</ele>
        <time>2024-12-29T16:34:50.434Z</time>
      </trkpt>
      <trkpt lat="49.9205279443413" lon="6.038602916523814">
        <ele>258.99</ele>
        <time>2024-12-29T16:35:04.433Z</time>
      </trkpt>
      <trkpt lat="49.92045493796468" lon="6.038573998957872">
        <ele>258.99</ele>
        <time>2024-12-29T16:35:18.442Z</time>
      </trkpt>
      <trkpt lat="49.92043297737837" lon="6.038527982309461">
        <ele>259.04</ele>
        <time>2024-12-29T16:35:32.456Z</time>
      </trkpt>
      <trkpt lat="49.92043892852962" lon="6.038455981761217">
        <ele>259.11</ele>
        <time>2024-12-29T16:35:46.477Z</time>
      </trkpt>
      <trkpt lat="49.9204779881984" lon="6.038384987041354">
        <ele>259.2</ele>
        <time>2024-12-29T16:36:00.506Z</time>
      </trkpt>
      <trkpt lat="49.92051696404815" lon="6.038346933200955">
        <ele>259.33</ele>
        <time>2024-12-29T16:36:14.541Z</time>
      </trkpt>
      <trkpt lat="49.92056298069656" lon="6.038303934037685">
        <ele>259.49</ele>
        <time>2024-12-29T16:36:28.583Z</time>
      </trkpt>
      <trkpt lat="49.92065392434597" lon="6.03824894875288">
        <ele>259.73</ele>
        <time>2024-12-29T16:36:42.638Z</time>
      </trkpt>
      <trkpt lat="49.920878978446126" lon="6.038203937932849">
        <ele>260.05</ele>
        <time>2024-12-29T16:36:56.723Z</time>
      </trkpt>
      <trkpt lat="49.92095592431724" lon="6.038156999275088">
        <ele>260.33</ele>
        <time>2024-12-29T16:37:10.819Z</time>
      </trkpt>
      <trkpt lat="49.921108558773994" lon="6.038039904087782">
        <ele>260.56</ele>
        <time>2024-12-29T16:37:24.938Z</time>
      </trkpt>
      <trkpt lat="49.92126094177365" lon="6.037922976538539">
        <ele>260.87</ele>
        <time>2024-12-29T16:37:39.080Z</time>
      </trkpt>
      <trkpt lat="49.92143092676997" lon="6.037825997918844">
        <ele>261.38</ele>
        <time>2024-12-29T16:37:53.246Z</time>
      </trkpt>
      <trkpt lat="49.92151793092489" lon="6.037791967391968">
        <ele>261.95</ele>
        <time>2024-12-29T16:38:07.424Z</time>
      </trkpt>
      <trkpt lat="49.921693950891495" lon="6.037788949906826">
        <ele>262.73</ele>
        <time>2024-12-29T16:38:21.625Z</time>
      </trkpt>
      <trkpt lat="49.92176695726812" lon="6.037766989320517">
        <ele>263.49</ele>
        <time>2024-12-29T16:38:35.836Z</time>
      </trkpt>
      <trkpt lat="49.9218319170177" lon="6.037719966843724">
        <ele>264.27</ele>
        <time>2024-12-29T16:38:50.057Z</time>
      </trkpt>
      <trkpt lat="49.92200299166143" lon="6.037419978529215">
        <ele>265.28</ele>
        <time>2024-12-29T16:39:04.312Z</time>
      </trkpt>
      <trkpt lat="49.92206099443138" lon="6.037500947713852">
        <ele>266.26</ele>
        <time>2024-12-29T16:39:18.578Z</time>
      </trkpt>
      <trkpt lat="49.92213693447411" lon="6.0375249199569225">
        <ele>267.27</ele>
        <time>2024-12-29T16:39:32.854Z</time>
      </trkpt>
      <trkpt lat="49.922210946679115" lon="6.037484938278794">
        <ele>268.36</ele>
        <time>2024-12-29T16:39:47.141Z</time>
      </trkpt>
      <trkpt lat="49.92228998802602" lon="6.03751796297729">
        <ele>269.53</ele>
        <time>2024-12-29T16:40:01.439Z</time>
      </trkpt>
      <trkpt lat="49.92239098995924" lon="6.03751695714891">
        <ele>270.72</ele>
        <time>2024-12-29T16:40:15.750Z</time>
      </trkpt>
      <trkpt lat="49.92264948785305" lon="6.037443447858095">
        <ele>272.2</ele>
        <time>2024-12-29T16:40:30.096Z</time>
      </trkpt>
      <trkpt lat="49.92290798574686" lon="6.037369938567281">
        <ele>273.74</ele>
        <time>2024-12-29T16:40:44.477Z</time>
      </trkpt>
      <trkpt lat="49.92283598519862" lon="6.037316964939237">
        <ele>274.97</ele>
        <time>2024-12-29T16:40:58.869Z</time>
      </trkpt>
      <trkpt lat="49.922789968550205" lon="6.037311935797334">
        <ele>276.19</ele>
        <time>2024-12-29T16:41:13.267Z</time>
      </trkpt>
      <trkpt lat="49.92269491776824" lon="6.03732492774725">
        <ele>277.39</ele>
        <time>2024-12-29T16:41:27.678Z</time>
      </trkpt>
      <trkpt lat="49.92254798300564" lon="6.037315959110856">
        <ele>278.57</ele>
        <time>2024-12-29T16:41:42.108Z</time>
      </trkpt>
      <trkpt lat="49.92244195193052" lon="6.037285951897502">
        <ele>279.91</ele>
        <time>2024-12-29T16:41:56.553Z</time>
      </trkpt>
      <trkpt lat="49.92236299440265" lon="6.0372359957546">
        <ele>281.41</ele>
        <time>2024-12-29T16:42:11.009Z</time>
      </trkpt>
      <trkpt lat="49.9222999624908" lon="6.037141950801015">
        <ele>283.01</ele>
        <time>2024-12-29T16:42:25.477Z</time>
      </trkpt>
      <trkpt lat="49.92226995527744" lon="6.037019994109869">
        <ele>284.79</ele>
        <time>2024-12-29T16:42:39.956Z</time>
      </trkpt>
      <trkpt lat="49.92227096110582" lon="6.0368769988417625">
        <ele>286.83</ele>
        <time>2024-12-29T16:42:54.447Z</time>
      </trkpt>
      <trkpt lat="49.92231194861233" lon="6.036791922524571">
        <ele>289.1</ele>
        <time>2024-12-29T16:43:08.948Z</time>
      </trkpt>
      <trkpt lat="49.922532979398966" lon="6.036696955561638">
        <ele>291.93</ele>
        <time>2024-12-29T16:43:23.479Z</time>
      </trkpt>
      <trkpt lat="49.92262593470514" lon="6.036616992205381">
        <ele>294.58</ele>
        <time>2024-12-29T16:43:38.024Z</time>
      </trkpt>
      <trkpt lat="49.92270698770881" lon="6.0364549700170755">
        <ele>297.14</ele>
        <time>2024-12-29T16:43:52.587Z</time>
      </trkpt>
      <trkpt lat="49.92277898825705" lon="6.036139978095889">
        <ele>299.94</ele>
        <time>2024-12-29T16:44:07.179Z</time>
      </trkpt>
      <trkpt lat="49.92278393357992" lon="6.035919953137636">
        <ele>302.69</ele>
        <time>2024-12-29T16:44:21.790Z</time>
      </trkpt>
      <trkpt lat="49.92273992858827" lon="6.0357949789613485">
        <ele>305.43</ele>
        <time>2024-12-29T16:44:36.413Z</time>
      </trkpt>
      <trkpt lat="49.92262593470514" lon="6.03562599979341">
        <ele>308.23</ele>
        <time>2024-12-29T16:44:51.057Z</time>
      </trkpt>
      <trkpt lat="49.92257991805673" lon="6.035508988425136">
        <ele>311.15</ele>
        <time>2024-12-29T16:45:05.713Z</time>
      </trkpt>
      <trkpt lat="49.922574972733855" lon="6.035358952358365">
        <ele>314.25</ele>
        <time>2024-12-29T16:45:20.382Z</time>
      </trkpt>
      <trkpt lat="49.92262995801866" lon="6.035252921283245">
        <ele>317.58</ele>
        <time>2024-12-29T16:45:35.063Z</time>
      </trkpt>
      <trkpt lat="49.92273598909378" lon="6.035210927948356">
        <ele>320.87</ele>
        <time>2024-12-29T16:45:49.758Z</time>
      </trkpt>
      <trkpt lat="49.923002952709794" lon="6.0352919809520245">
        <ele>324.29</ele>
        <time>2024-12-29T16:46:04.489Z</time>
      </trkpt>
      <trkpt lat="49.92319196462631" lon="6.035329448059201">
        <ele>327.47</ele>
        <time>2024-12-29T16:46:19.246Z</time>
      </trkpt>
      <trkpt lat="49.92338097654283" lon="6.03536699898541">
        <ele>330.6</ele>
        <time>2024-12-29T16:46:34.028Z</time>
      </trkpt>
      <trkpt lat="49.92353193461895" lon="6.035404969006777">
        <ele>333.67</ele>
        <time>2024-12-29T16:46:48.831Z</time>
      </trkpt>
      <trkpt lat="49.92371893487871" lon="6.03545299731195">
        <ele>336.69</ele>
        <time>2024-12-29T16:47:03.659Z</time>
      </trkpt>
      <trkpt lat="49.92396242916584" lon="6.035454422235489">
        <ele>339.78</ele>
        <time>2024-12-29T16:47:18.520Z</time>
      </trkpt>
      <trkpt lat="49.92420592345297" lon="6.03545593097806">
        <ele>342.85</ele>
        <time>2024-12-29T16:47:33.413Z</time>
      </trkpt>
      <trkpt lat="49.924445981159806" lon="6.03551996871829">
        <ele>345.85</ele>
        <time>2024-12-29T16:47:48.339Z</time>
      </trkpt>
      <trkpt lat="49.92460498586297" lon="6.035573445260525">
        <ele>348.62</ele>
        <time>2024-12-29T16:48:03.286Z</time>
      </trkpt>
      <trkpt lat="49.924763990566134" lon="6.035626921802759">
        <ele>351.2</ele>
        <time>2024-12-29T16:48:18.255Z</time>
      </trkpt>
      <trkpt lat="49.924941938370466" lon="6.03571099229157">
        <ele>353.6</ele>
        <time>2024-12-29T16:48:33.249Z</time>
      </trkpt>
      <trkpt lat="49.92499994114041" lon="6.035692971199751">
        <ele>355.79</ele>
        <time>2024-12-29T16:48:48.251Z</time>
      </trkpt>
      <trkpt lat="49.925127094611526" lon="6.035840073600411">
        <ele>357.7</ele>
        <time>2024-12-29T16:49:03.274Z</time>
      </trkpt>
      <trkpt lat="49.92525399662554" lon="6.035986924543977">
        <ele>359.38</ele>
        <time>2024-12-29T16:49:18.318Z</time>
      </trkpt>
      <trkpt lat="49.92540495470166" lon="6.036125980317593">
        <ele>360.9</ele>
        <time>2024-12-29T16:49:33.385Z</time>
      </trkpt>
      <trkpt lat="49.92559497244656" lon="6.036222958937287">
        <ele>362.5</ele>
        <time>2024-12-29T16:49:48.479Z</time>
      </trkpt>
      <trkpt lat="49.92574693635106" lon="6.036238968372345">
        <ele>363.96</ele>
        <time>2024-12-29T16:50:03.594Z</time>
      </trkpt>
      <trkpt lat="49.9258569907397" lon="6.036304933950305">
        <ele>365.0</ele>
        <time>2024-12-29T16:50:18.724Z</time>
      </trkpt>
      <trkpt lat="49.92604248225689" lon="6.036370480433106">
        <ele>365.92</ele>
        <time>2024-12-29T16:50:33.880Z</time>
      </trkpt>
      <trkpt lat="49.926227973774076" lon="6.036435943096876">
        <ele>366.69</ele>
        <time>2024-12-29T16:50:49.061Z</time>
      </trkpt>
      <trkpt lat="49.926459984853864" lon="6.036589918658137">
        <ele>367.36</ele>
        <time>2024-12-29T16:51:04.276Z</time>
      </trkpt>
      <trkpt lat="49.9266289640218" lon="6.036750935018063">
        <ele>367.96</ele>
        <time>2024-12-29T16:51:19.517Z</time>
      </trkpt>
      <trkpt lat="49.926717979833484" lon="6.036888984963298">
        <ele>368.45</ele>
        <time>2024-12-29T16:51:34.775Z</time>
      </trkpt>
      <trkpt lat="49.92675293236971" lon="6.036998955532908">
        <ele>368.84</ele>
        <time>2024-12-29T16:51:50.044Z</time>
      </trkpt>
      <trkpt lat="49.926766930148005" lon="6.0371149610728025">
        <ele>369.12</ele>
        <time>2024-12-29T16:52:05.323Z</time>
      </trkpt>
      <trkpt lat="49.92679794318974" lon="6.037213951349258">
        <ele>369.53</ele>
        <time>2024-12-29T16:52:20.611Z</time>
      </trkpt>
      <trkpt lat="49.926852928474545" lon="6.037310929968953">
        <ele>370.01</ele>
        <time>2024-12-29T16:52:35.910Z</time>
      </trkpt>
      <trkpt lat="49.92696499451995" lon="6.037433976307511">
        <ele>370.62</ele>
        <time>2024-12-29T16:52:51.228Z</time>
      </trkpt>
      <trkpt lat="49.9270539265126" lon="6.037550987675786">
        <ele>371.06</ele>
        <time>2024-12-29T16:53:06.561Z</time>
      </trkpt>
      <trkpt lat="49.927110923454165" lon="6.0376739501953125">
        <ele>371.33</ele>
        <time>2024-12-29T16:53:21.907Z</time>
      </trkpt>
      <trkpt lat="49.927171943709254" lon="6.037749974057078">
        <ele>371.69</ele>
        <time>2024-12-29T16:53:37.264Z</time>
      </trkpt>
      <trkpt lat="49.92722097784281" lon="6.037858938798308">
        <ele>371.89</ele>
        <time>2024-12-29T16:53:52.632Z</time>
      </trkpt>
      <trkpt lat="49.927283925935626" lon="6.037953989580274">
        <ele>372.19</ele>
        <time>2024-12-29T16:54:08.012Z</time>
      </trkpt>
      <trkpt lat="49.927428932860494" lon="6.038315920159221">
        <ele>372.48</ele>
        <time>2024-12-29T16:54:23.429Z</time>
      </trkpt>
      <trkpt lat="49.92753094062209" lon="6.038621943444014">
        <ele>372.58</ele>
        <time>2024-12-29T16:54:38.875Z</time>
      </trkpt>
      <trkpt lat="49.927622973918915" lon="6.039002984762192">
        <ele>372.6</ele>
        <time>2024-12-29T16:54:54.356Z</time>
      </trkpt>
      <trkpt lat="49.92769396863878" lon="6.039222925901413">
        <ele>372.69</ele>
        <time>2024-12-29T16:55:09.859Z</time>
      </trkpt>
      <trkpt lat="49.92771894671023" lon="6.03932099416852">
        <ele>372.74</ele>
        <time>2024-12-29T16:55:25.371Z</time>
      </trkpt>
      <trkpt lat="49.92775599472225" lon="6.0393959283828735">
        <ele>372.86</ele>
        <time>2024-12-29T16:55:40.891Z</time>
      </trkpt>
      <trkpt lat="49.927774937823415" lon="6.039474969729781">
        <ele>372.9</ele>
        <time>2024-12-29T16:55:56.418Z</time>
      </trkpt>
      <trkpt lat="49.92780796252191" lon="6.039551999419928">
        <ele>372.96</ele>
        <time>2024-12-29T16:56:11.953Z</time>
      </trkpt>
      <trkpt lat="49.92782296612859" lon="6.039631962776184">
        <ele>372.96</ele>
        <time>2024-12-29T16:56:27.495Z</time>
      </trkpt>
      <trkpt lat="49.927925979718566" lon="6.039935974404216">
        <ele>373.01</ele>
        <time>2024-12-29T16:56:43.067Z</time>
      </trkpt>
      <trkpt lat="49.92794391699135" lon="6.040071928873658">
        <ele>372.95</ele>
        <time>2024-12-29T16:56:58.651Z</time>
      </trkpt>
      <trkpt lat="49.9280159175396" lon="6.040279967710376">
        <ele>373.19</ele>
        <time>2024-12-29T16:57:14.255Z</time>
      </trkpt>
      <trkpt lat="49.928034944459796" lon="6.040409971028566">
        <ele>373.28</ele>
        <time>2024-12-29T16:57:29.871Z</time>
      </trkpt>
      <trkpt lat="49.92804198525846" lon="6.040558917447925">
        <ele>373.5</ele>
        <time>2024-12-29T16:57:45.499Z</time>
      </trkpt>
      <trkpt lat="49.928093953058124" lon="6.040983963757753">
        <ele>373.94</ele>
        <time>2024-12-29T16:58:01.165Z</time>
      </trkpt>
      <trkpt lat="49.92811297997832" lon="6.041281940415502">
        <ele>373.97</ele>
        <time>2024-12-29T16:58:16.857Z</time>
      </trkpt>
      <trkpt lat="49.9281089566648" lon="6.041506994515657">
        <ele>374.01</ele>
        <time>2024-12-29T16:58:32.568Z</time>
      </trkpt>
      <trkpt lat="49.92810593917966" lon="6.041789967566729">
        <ele>374.2</ele>
        <time>2024-12-29T16:58:48.303Z</time>
      </trkpt>
      <trkpt lat="49.92812697775662" lon="6.042045950889587">
        <ele>374.74</ele>
        <time>2024-12-29T16:59:04.061Z</time>
      </trkpt>
      <trkpt lat="49.928136952221394" lon="6.042380975559354">
        <ele>375.31</ele>
        <time>2024-12-29T16:59:19.847Z</time>
      </trkpt>
      <trkpt lat="49.928117925301194" lon="6.042635953053832">
        <ele>375.9</ele>
        <time>2024-12-29T16:59:35.656Z</time>
      </trkpt>
      <trkpt lat="49.92806796915829" lon="6.042872993275523">
        <ele>376.43</ele>
        <time>2024-12-29T16:59:51.486Z</time>
      </trkpt>
      <trkpt lat="49.92806394584477" lon="6.043053958564997">
        <ele>377.06</ele>
        <time>2024-12-29T17:00:07.332Z</time>
      </trkpt>
      <trkpt lat="49.92804693058133" lon="6.043183961883187">
        <ele>377.59</ele>
        <time>2024-12-29T17:00:23.189Z</time>
      </trkpt>
      <trkpt lat="49.928076937794685" lon="6.043264931067824">
        <ele>378.07</ele>
        <time>2024-12-29T17:00:39.054Z</time>
      </trkpt>
      <trkpt lat="49.92810292169452" lon="6.043371967971325">
        <ele>378.4</ele>
        <time>2024-12-29T17:00:54.929Z</time>
      </trkpt>
      <trkpt lat="49.92813292890787" lon="6.043379930779338">
        <ele>378.65</ele>
        <time>2024-12-29T17:01:10.808Z</time>
      </trkpt>
      <trkpt lat="49.92823099717498" lon="6.043335925787687">
        <ele>378.82</ele>
        <time>2024-12-29T17:01:26.701Z</time>
      </trkpt>
      <trkpt lat="49.928251868113875" lon="6.043319497257471">
        <ele>378.64</ele>
        <time>2024-12-29T17:01:42.597Z</time>
      </trkpt>
      <trkpt lat="49.92829998023808" lon="6.043281946331263">
        <ele>378.26</ele>
        <time>2024-12-29T17:01:58.500Z</time>
      </trkpt>
      <trkpt lat="49.928333926945925" lon="6.043275995180011">
        <ele>377.61</ele>
        <time>2024-12-29T17:02:14.408Z</time>
      </trkpt>
      <trkpt lat="49.92836594581604" lon="6.043290998786688">
        <ele>376.7</ele>
        <time>2024-12-29T17:02:30.320Z</time>
      </trkpt>
      <trkpt lat="49.92830693721771" lon="6.043428964912891">
        <ele>375.45</ele>
        <time>2024-12-29T17:02:46.246Z</time>
      </trkpt>
      <trkpt lat="49.928288999944925" lon="6.043505994603038">
        <ele>373.91</ele>
        <time>2024-12-29T17:03:02.179Z</time>
      </trkpt>
      <trkpt lat="49.92826293222606" lon="6.0437369998544455">
        <ele>371.94</ele>
        <time>2024-12-29T17:03:18.133Z</time>
      </trkpt>
      <trkpt lat="49.92823393084109" lon="6.043904973194003">
        <ele>369.76</ele>
        <time>2024-12-29T17:03:34.101Z</time>
      </trkpt>
      <trkpt lat="49.92818699218333" lon="6.044063977897167">
        <ele>367.38</ele>
        <time>2024-12-29T17:03:50.085Z</time>
      </trkpt>
      <trkpt lat="49.92813393473625" lon="6.044278973713517">
        <ele>364.47</ele>
        <time>2024-12-29T17:04:06.088Z</time>
      </trkpt>
      <trkpt lat="49.92804299108684" lon="6.044565970078111">
        <ele>361.4</ele>
        <time>2024-12-29T17:04:22.119Z</time>
      </trkpt>
      <trkpt lat="49.92791399359703" lon="6.04497492313385">
        <ele>357.91</ele>
        <time>2024-12-29T17:04:38.189Z</time>
      </trkpt>
      <trkpt lat="49.927793964743614" lon="6.045205928385258">
        <ele>354.38</ele>
        <time>2024-12-29T17:04:54.285Z</time>
      </trkpt>
      <trkpt lat="49.92775498889387" lon="6.045256974175572">
        <ele>351.12</ele>
        <time>2024-12-29T17:05:10.388Z</time>
      </trkpt>
      <trkpt lat="49.927579974755645" lon="6.045394940301776">
        <ele>347.55</ele>
        <time>2024-12-29T17:05:26.517Z</time>
      </trkpt>
      <trkpt lat="49.92747796699405" lon="6.045426959171891">
        <ele>344.18</ele>
        <time>2024-12-29T17:05:42.660Z</time>
      </trkpt>
      <trkpt lat="49.92739398032427" lon="6.045425953343511">
        <ele>340.83</ele>
        <time>2024-12-29T17:05:58.814Z</time>
      </trkpt>
      <trkpt lat="49.92729499004781" lon="6.045377925038338">
        <ele>337.39</ele>
        <time>2024-12-29T17:06:14.982Z</time>
      </trkpt>
      <trkpt lat="49.92720396257937" lon="6.0452719777822495">
        <ele>333.91</ele>
        <time>2024-12-29T17:06:31.165Z</time>
      </trkpt>
      <trkpt lat="49.92704797536135" lon="6.045034937560558">
        <ele>330.19</ele>
        <time>2024-12-29T17:06:47.377Z</time>
      </trkpt>
      <trkpt lat="49.92696792818606" lon="6.044871993362904">
        <ele>326.46</ele>
        <time>2024-12-29T17:07:03.607Z</time>
      </trkpt>
      <trkpt lat="49.92693096399307" lon="6.044734949246049">
        <ele>322.78</ele>
        <time>2024-12-29T17:07:19.849Z</time>
      </trkpt>
      <trkpt lat="49.92690799757838" lon="6.044578962028027">
        <ele>319.12</ele>
        <time>2024-12-29T17:07:36.105Z</time>
      </trkpt>
      <trkpt lat="49.9269019626081" lon="6.044487934559584">
        <ele>315.49</ele>
        <time>2024-12-29T17:07:52.369Z</time>
      </trkpt>
      <trkpt lat="49.92690891958773" lon="6.044395985081792">
        <ele>311.82</ele>
        <time>2024-12-29T17:08:08.641Z</time>
      </trkpt>
      <trkpt lat="49.92688695900142" lon="6.044362960383296">
        <ele>307.99</ele>
        <time>2024-12-29T17:08:24.917Z</time>
      </trkpt>
      <trkpt lat="49.92686399258673" lon="6.044375952333212">
        <ele>304.1</ele>
        <time>2024-12-29T17:08:41.196Z</time>
      </trkpt>
      <trkpt lat="49.92681194096804" lon="6.044461950659752">
        <ele>299.98</ele>
        <time>2024-12-29T17:08:57.486Z</time>
      </trkpt>
      <trkpt lat="49.92673197761178" lon="6.044637970626354">
        <ele>295.65</ele>
        <time>2024-12-29T17:09:13.794Z</time>
      </trkpt>
      <trkpt lat="49.92659870535135" lon="6.044958578422666">
        <ele>290.83</ele>
        <time>2024-12-29T17:09:30.135Z</time>
      </trkpt>
      <trkpt lat="49.926465936005116" lon="6.045277928933501">
        <ele>285.84</ele>
        <time>2024-12-29T17:09:46.509Z</time>
      </trkpt>
      <trkpt lat="49.92638999596238" lon="6.045698951929808">
        <ele>281.17</ele>
        <time>2024-12-29T17:10:02.920Z</time>
      </trkpt>
      <trkpt lat="49.92634582333267" lon="6.045947642996907">
        <ele>276.98</ele>
        <time>2024-12-29T17:10:19.354Z</time>
      </trkpt>
      <trkpt lat="49.92630198597908" lon="6.046194992959499">
        <ele>272.99</ele>
        <time>2024-12-29T17:10:35.810Z</time>
      </trkpt>
      <trkpt lat="49.92623794823885" lon="6.046452987939119">
        <ele>269.01</ele>
        <time>2024-12-29T17:10:52.290Z</time>
      </trkpt>
      <trkpt lat="49.926164941862226" lon="6.046619955450296">
        <ele>265.22</ele>
        <time>2024-12-29T17:11:08.787Z</time>
      </trkpt>
      <trkpt lat="49.92595799267292" lon="6.046849954873323">
        <ele>261.38</ele>
        <time>2024-12-29T17:11:25.318Z</time>
      </trkpt>
      <trkpt lat="49.92583595216274" lon="6.04696998372674">
        <ele>258.17</ele>
        <time>2024-12-29T17:11:41.868Z</time>
      </trkpt>
      <trkpt lat="49.92577292025089" lon="6.047090934589505">
        <ele>255.49</ele>
        <time>2024-12-29T17:11:58.432Z</time>
      </trkpt>
      <trkpt lat="49.92572296410799" lon="6.047224961221218">
        <ele>252.96</ele>
        <time>2024-12-29T17:12:15.009Z</time>
      </trkpt>
      <trkpt lat="49.92568499408662" lon="6.047282963991165">
        <ele>250.66</ele>
        <time>2024-12-29T17:12:31.593Z</time>
      </trkpt>
      <trkpt lat="49.92563595995307" lon="6.047318922355771">
        <ele>248.38</ele>
        <time>2024-12-29T17:12:48.184Z</time>
      </trkpt>
      <trkpt lat="49.925563959404826" lon="6.047351947054267">
        <ele>246.21</ele>
        <time>2024-12-29T17:13:04.785Z</time>
      </trkpt>
      <trkpt lat="49.92553596384823" lon="6.047303918749094">
        <ele>244.42</ele>
        <time>2024-12-29T17:13:21.392Z</time>
      </trkpt>
      <trkpt lat="49.92548692971468" lon="6.0472519509494305">
        <ele>242.82</ele>
        <time>2024-12-29T17:13:38.007Z</time>
      </trkpt>
      <trkpt lat="49.9254359677434" lon="6.0472239553928375">
        <ele>241.58</ele>
        <time>2024-12-29T17:13:54.629Z</time>
      </trkpt>
      <trkpt lat="49.92546890862286" lon="6.047166874632239">
        <ele>240.93</ele>
        <time>2024-12-29T17:14:11.258Z</time>
      </trkpt>
    </trkseg>
  </trk>
</gpx>
